<?xml version="1.0" encoding="UTF-8" standalone="no" ?>
<gpx xmlns="http://www.topografix.com/GPX/1/1" xmlns:xsi="http://www.w3.org/2001/XMLSchema-instance" xsi:schemaLocation="http://www.topografix.com/GPX/1/1 http://www.topografix.com/GPX/1/1/gpx.xsd" version="1.1" creator="VisuGPX - https://www.visugpx.com">
  <metadata>
    <name>Cabane du résinier</name>
  </metadata>
  <trk>
    <name><![CDATA[CABANE RESINIER:48]]></name>
    <extensions>
      <line xmlns="http://www.topografix.com/GPX/gpx_style/0/2">
        <color>0000FF</color>
        <width>4</width>
      </line>
    </extensions>
    <trkseg>
      <trkpt lat="44.7749" lon="-1.16486">
        <ele>-28.7</ele>
        <time>2023-09-10T07:12:20Z</time>
      </trkpt>
      <trkpt lat="44.77491" lon="-1.16488">
        <ele>-29.18</ele>
        <time>2023-09-10T07:12:21Z</time>
      </trkpt>
      <trkpt lat="44.77492" lon="-1.16497">
        <ele>-28.7</ele>
        <time>2023-09-10T07:12:33Z</time>
      </trkpt>
      <trkpt lat="44.7749" lon="-1.16499">
        <ele>-31.11</ele>
        <time>2023-09-10T07:12:50Z</time>
      </trkpt>
      <trkpt lat="44.7749" lon="-1.16498">
        <ele>-27.26</ele>
        <time>2023-09-10T07:12:56Z</time>
      </trkpt>
      <trkpt lat="44.77491" lon="-1.16501">
        <ele>-23.41</ele>
        <time>2023-09-10T07:13:05Z</time>
      </trkpt>
      <trkpt lat="44.77491" lon="-1.16501">
        <ele>-22.93</ele>
        <time>2023-09-10T07:13:06Z</time>
      </trkpt>
      <trkpt lat="44.7749" lon="-1.16502">
        <ele>-21.01</ele>
        <time>2023-09-10T07:13:12Z</time>
      </trkpt>
      <trkpt lat="44.77487" lon="-1.16504">
        <ele>-19.09</ele>
        <time>2023-09-10T07:13:20Z</time>
      </trkpt>
      <trkpt lat="44.77479" lon="-1.16489">
        <ele>-18.13</ele>
        <time>2023-09-10T07:13:26Z</time>
      </trkpt>
      <trkpt lat="44.77467" lon="-1.16476">
        <ele>-15.24</ele>
        <time>2023-09-10T07:13:36Z</time>
      </trkpt>
      <trkpt lat="44.77456" lon="-1.1647">
        <ele>-12.36</ele>
        <time>2023-09-10T07:13:46Z</time>
      </trkpt>
      <trkpt lat="44.77442" lon="-1.16465">
        <ele>-9.96</ele>
        <time>2023-09-10T07:13:55Z</time>
      </trkpt>
      <trkpt lat="44.77433" lon="-1.16462">
        <ele>-7.55</ele>
        <time>2023-09-10T07:14:04Z</time>
      </trkpt>
      <trkpt lat="44.77421" lon="-1.16459">
        <ele>-5.15</ele>
        <time>2023-09-10T07:14:14Z</time>
      </trkpt>
      <trkpt lat="44.77412" lon="-1.16451">
        <ele>-3.71</ele>
        <time>2023-09-10T07:14:22Z</time>
      </trkpt>
      <trkpt lat="44.77402" lon="-1.16444">
        <ele>-2.27</ele>
        <time>2023-09-10T07:14:31Z</time>
      </trkpt>
      <trkpt lat="44.77399" lon="-1.16435">
        <ele>-0.82</ele>
        <time>2023-09-10T07:14:39Z</time>
      </trkpt>
      <trkpt lat="44.77399" lon="-1.16434">
        <ele>-1.79</ele>
        <time>2023-09-10T07:14:40Z</time>
      </trkpt>
      <trkpt lat="44.77392" lon="-1.16415">
        <ele>1.1</ele>
        <time>2023-09-10T07:14:51Z</time>
      </trkpt>
      <trkpt lat="44.77391" lon="-1.16415">
        <ele>1.1</ele>
        <time>2023-09-10T07:14:52Z</time>
      </trkpt>
      <trkpt lat="44.77386" lon="-1.16402">
        <ele>2.06</ele>
        <time>2023-09-10T07:15:00Z</time>
      </trkpt>
      <trkpt lat="44.77384" lon="-1.16387">
        <ele>2.06</ele>
        <time>2023-09-10T07:15:07Z</time>
      </trkpt>
      <trkpt lat="44.77384" lon="-1.16377">
        <ele>2.06</ele>
        <time>2023-09-10T07:15:12Z</time>
      </trkpt>
      <trkpt lat="44.77374" lon="-1.16367">
        <ele>1.58</ele>
        <time>2023-09-10T07:15:22Z</time>
      </trkpt>
      <trkpt lat="44.77366" lon="-1.16359">
        <ele>1.58</ele>
        <time>2023-09-10T07:15:29Z</time>
      </trkpt>
      <trkpt lat="44.77356" lon="-1.16347">
        <ele>2.06</ele>
        <time>2023-09-10T07:15:38Z</time>
      </trkpt>
      <trkpt lat="44.77352" lon="-1.16341">
        <ele>2.06</ele>
        <time>2023-09-10T07:15:46Z</time>
      </trkpt>
      <trkpt lat="44.77355" lon="-1.1634">
        <ele>1.58</ele>
        <time>2023-09-10T07:15:50Z</time>
      </trkpt>
      <trkpt lat="44.77368" lon="-1.16328">
        <ele>2.06</ele>
        <time>2023-09-10T07:16:00Z</time>
      </trkpt>
      <trkpt lat="44.77373" lon="-1.16318">
        <ele>2.06</ele>
        <time>2023-09-10T07:16:08Z</time>
      </trkpt>
      <trkpt lat="44.77377" lon="-1.16307">
        <ele>2.06</ele>
        <time>2023-09-10T07:16:15Z</time>
      </trkpt>
      <trkpt lat="44.77377" lon="-1.16296">
        <ele>2.06</ele>
        <time>2023-09-10T07:16:20Z</time>
      </trkpt>
      <trkpt lat="44.77375" lon="-1.16284">
        <ele>2.06</ele>
        <time>2023-09-10T07:16:27Z</time>
      </trkpt>
      <trkpt lat="44.77374" lon="-1.16276">
        <ele>2.06</ele>
        <time>2023-09-10T07:16:32Z</time>
      </trkpt>
      <trkpt lat="44.77371" lon="-1.16269">
        <ele>2.06</ele>
        <time>2023-09-10T07:16:36Z</time>
      </trkpt>
      <trkpt lat="44.77365" lon="-1.16249">
        <ele>2.54</ele>
        <time>2023-09-10T07:16:46Z</time>
      </trkpt>
      <trkpt lat="44.77365" lon="-1.16247">
        <ele>2.06</ele>
        <time>2023-09-10T07:16:47Z</time>
      </trkpt>
      <trkpt lat="44.77369" lon="-1.1623">
        <ele>2.06</ele>
        <time>2023-09-10T07:16:55Z</time>
      </trkpt>
      <trkpt lat="44.77367" lon="-1.16222">
        <ele>2.54</ele>
        <time>2023-09-10T07:17:00Z</time>
      </trkpt>
      <trkpt lat="44.77367" lon="-1.16218">
        <ele>2.06</ele>
        <time>2023-09-10T07:17:02Z</time>
      </trkpt>
      <trkpt lat="44.77363" lon="-1.162">
        <ele>2.54</ele>
        <time>2023-09-10T07:17:09Z</time>
      </trkpt>
      <trkpt lat="44.77357" lon="-1.16186">
        <ele>2.54</ele>
        <time>2023-09-10T07:17:17Z</time>
      </trkpt>
      <trkpt lat="44.7735" lon="-1.16174">
        <ele>2.54</ele>
        <time>2023-09-10T07:17:25Z</time>
      </trkpt>
      <trkpt lat="44.77343" lon="-1.16163">
        <ele>2.06</ele>
        <time>2023-09-10T07:17:33Z</time>
      </trkpt>
      <trkpt lat="44.77337" lon="-1.16154">
        <ele>2.54</ele>
        <time>2023-09-10T07:17:40Z</time>
      </trkpt>
      <trkpt lat="44.77333" lon="-1.16145">
        <ele>2.06</ele>
        <time>2023-09-10T07:17:45Z</time>
      </trkpt>
      <trkpt lat="44.77322" lon="-1.16131">
        <ele>2.54</ele>
        <time>2023-09-10T07:17:54Z</time>
      </trkpt>
      <trkpt lat="44.77316" lon="-1.16122">
        <ele>2.54</ele>
        <time>2023-09-10T07:18:00Z</time>
      </trkpt>
      <trkpt lat="44.77314" lon="-1.1612">
        <ele>2.06</ele>
        <time>2023-09-10T07:18:02Z</time>
      </trkpt>
      <trkpt lat="44.77312" lon="-1.16116">
        <ele>2.54</ele>
        <time>2023-09-10T07:18:05Z</time>
      </trkpt>
      <trkpt lat="44.7731" lon="-1.16112">
        <ele>2.06</ele>
        <time>2023-09-10T07:18:09Z</time>
      </trkpt>
      <trkpt lat="44.77307" lon="-1.16104">
        <ele>2.06</ele>
        <time>2023-09-10T07:18:15Z</time>
      </trkpt>
      <trkpt lat="44.77296" lon="-1.16096">
        <ele>2.06</ele>
        <time>2023-09-10T07:18:23Z</time>
      </trkpt>
      <trkpt lat="44.77288" lon="-1.16087">
        <ele>2.06</ele>
        <time>2023-09-10T07:18:30Z</time>
      </trkpt>
      <trkpt lat="44.77288" lon="-1.16085">
        <ele>2.06</ele>
        <time>2023-09-10T07:18:32Z</time>
      </trkpt>
      <trkpt lat="44.77291" lon="-1.16075">
        <ele>2.54</ele>
        <time>2023-09-10T07:18:38Z</time>
      </trkpt>
      <trkpt lat="44.77293" lon="-1.16072">
        <ele>2.06</ele>
        <time>2023-09-10T07:18:41Z</time>
      </trkpt>
      <trkpt lat="44.77296" lon="-1.16064">
        <ele>2.06</ele>
        <time>2023-09-10T07:18:45Z</time>
      </trkpt>
      <trkpt lat="44.77297" lon="-1.16056">
        <ele>2.54</ele>
        <time>2023-09-10T07:18:49Z</time>
      </trkpt>
      <trkpt lat="44.77299" lon="-1.16051">
        <ele>2.54</ele>
        <time>2023-09-10T07:18:52Z</time>
      </trkpt>
      <trkpt lat="44.77304" lon="-1.16038">
        <ele>2.06</ele>
        <time>2023-09-10T07:19:01Z</time>
      </trkpt>
      <trkpt lat="44.77306" lon="-1.1603">
        <ele>3.98</ele>
        <time>2023-09-10T07:19:08Z</time>
      </trkpt>
      <trkpt lat="44.77308" lon="-1.16025">
        <ele>3.98</ele>
        <time>2023-09-10T07:19:12Z</time>
      </trkpt>
      <trkpt lat="44.77312" lon="-1.16014">
        <ele>3.98</ele>
        <time>2023-09-10T07:19:20Z</time>
      </trkpt>
      <trkpt lat="44.77314" lon="-1.16007">
        <ele>3.02</ele>
        <time>2023-09-10T07:19:27Z</time>
      </trkpt>
      <trkpt lat="44.77314" lon="-1.16006">
        <ele>2.54</ele>
        <time>2023-09-10T07:19:28Z</time>
      </trkpt>
      <trkpt lat="44.77314" lon="-1.15999">
        <ele>2.54</ele>
        <time>2023-09-10T07:19:36Z</time>
      </trkpt>
      <trkpt lat="44.77315" lon="-1.15993">
        <ele>2.06</ele>
        <time>2023-09-10T07:19:43Z</time>
      </trkpt>
      <trkpt lat="44.77316" lon="-1.15984">
        <ele>2.54</ele>
        <time>2023-09-10T07:19:54Z</time>
      </trkpt>
      <trkpt lat="44.77316" lon="-1.15981">
        <ele>2.06</ele>
        <time>2023-09-10T07:20:07Z</time>
      </trkpt>
      <trkpt lat="44.77318" lon="-1.1598">
        <ele>3.02</ele>
        <time>2023-09-10T07:20:15Z</time>
      </trkpt>
      <trkpt lat="44.77317" lon="-1.15976">
        <ele>2.54</ele>
        <time>2023-09-10T07:20:20Z</time>
      </trkpt>
      <trkpt lat="44.77307" lon="-1.15971">
        <ele>2.54</ele>
        <time>2023-09-10T07:20:27Z</time>
      </trkpt>
      <trkpt lat="44.77291" lon="-1.15965">
        <ele>3.02</ele>
        <time>2023-09-10T07:20:39Z</time>
      </trkpt>
      <trkpt lat="44.77279" lon="-1.15961">
        <ele>2.54</ele>
        <time>2023-09-10T07:20:48Z</time>
      </trkpt>
      <trkpt lat="44.77263" lon="-1.15957">
        <ele>2.06</ele>
        <time>2023-09-10T07:20:58Z</time>
      </trkpt>
      <trkpt lat="44.77257" lon="-1.15948">
        <ele>2.54</ele>
        <time>2023-09-10T07:21:05Z</time>
      </trkpt>
      <trkpt lat="44.77249" lon="-1.15938">
        <ele>3.02</ele>
        <time>2023-09-10T07:21:14Z</time>
      </trkpt>
      <trkpt lat="44.77245" lon="-1.15934">
        <ele>2.54</ele>
        <time>2023-09-10T07:21:19Z</time>
      </trkpt>
      <trkpt lat="44.77229" lon="-1.15928">
        <ele>3.02</ele>
        <time>2023-09-10T07:21:31Z</time>
      </trkpt>
      <trkpt lat="44.77219" lon="-1.15926">
        <ele>3.02</ele>
        <time>2023-09-10T07:21:39Z</time>
      </trkpt>
      <trkpt lat="44.77212" lon="-1.15918">
        <ele>3.02</ele>
        <time>2023-09-10T07:21:47Z</time>
      </trkpt>
      <trkpt lat="44.77203" lon="-1.15911">
        <ele>2.06</ele>
        <time>2023-09-10T07:21:56Z</time>
      </trkpt>
      <trkpt lat="44.7719" lon="-1.15901">
        <ele>2.54</ele>
        <time>2023-09-10T07:22:05Z</time>
      </trkpt>
      <trkpt lat="44.7718" lon="-1.15891">
        <ele>3.02</ele>
        <time>2023-09-10T07:22:15Z</time>
      </trkpt>
      <trkpt lat="44.7717" lon="-1.15877">
        <ele>3.02</ele>
        <time>2023-09-10T07:22:25Z</time>
      </trkpt>
      <trkpt lat="44.77161" lon="-1.15864">
        <ele>2.54</ele>
        <time>2023-09-10T07:22:34Z</time>
      </trkpt>
      <trkpt lat="44.77155" lon="-1.15853">
        <ele>3.02</ele>
        <time>2023-09-10T07:22:42Z</time>
      </trkpt>
      <trkpt lat="44.77146" lon="-1.15844">
        <ele>3.5</ele>
        <time>2023-09-10T07:22:51Z</time>
      </trkpt>
      <trkpt lat="44.77138" lon="-1.15833">
        <ele>3.5</ele>
        <time>2023-09-10T07:22:58Z</time>
      </trkpt>
      <trkpt lat="44.77131" lon="-1.15822">
        <ele>3.02</ele>
        <time>2023-09-10T07:23:05Z</time>
      </trkpt>
      <trkpt lat="44.7712" lon="-1.1581">
        <ele>3.5</ele>
        <time>2023-09-10T07:23:13Z</time>
      </trkpt>
      <trkpt lat="44.77112" lon="-1.158">
        <ele>3.98</ele>
        <time>2023-09-10T07:23:24Z</time>
      </trkpt>
      <trkpt lat="44.77102" lon="-1.1579">
        <ele>4.46</ele>
        <time>2023-09-10T07:23:36Z</time>
      </trkpt>
      <trkpt lat="44.77092" lon="-1.15783">
        <ele>4.46</ele>
        <time>2023-09-10T07:23:46Z</time>
      </trkpt>
      <trkpt lat="44.77082" lon="-1.15774">
        <ele>4.46</ele>
        <time>2023-09-10T07:23:56Z</time>
      </trkpt>
      <trkpt lat="44.7707" lon="-1.15756">
        <ele>3.98</ele>
        <time>2023-09-10T07:24:04Z</time>
      </trkpt>
      <trkpt lat="44.77061" lon="-1.15744">
        <ele>3.98</ele>
        <time>2023-09-10T07:24:12Z</time>
      </trkpt>
      <trkpt lat="44.7705" lon="-1.15732">
        <ele>4.46</ele>
        <time>2023-09-10T07:24:22Z</time>
      </trkpt>
      <trkpt lat="44.77044" lon="-1.15722">
        <ele>4.46</ele>
        <time>2023-09-10T07:24:30Z</time>
      </trkpt>
      <trkpt lat="44.77036" lon="-1.1571">
        <ele>3.98</ele>
        <time>2023-09-10T07:24:39Z</time>
      </trkpt>
      <trkpt lat="44.77029" lon="-1.15697">
        <ele>3.98</ele>
        <time>2023-09-10T07:24:48Z</time>
      </trkpt>
      <trkpt lat="44.77028" lon="-1.15688">
        <ele>4.46</ele>
        <time>2023-09-10T07:24:53Z</time>
      </trkpt>
      <trkpt lat="44.77031" lon="-1.1567">
        <ele>4.94</ele>
        <time>2023-09-10T07:25:04Z</time>
      </trkpt>
      <trkpt lat="44.7703" lon="-1.15656">
        <ele>4.46</ele>
        <time>2023-09-10T07:25:12Z</time>
      </trkpt>
      <trkpt lat="44.77032" lon="-1.1563">
        <ele>4.46</ele>
        <time>2023-09-10T07:25:24Z</time>
      </trkpt>
      <trkpt lat="44.77035" lon="-1.15613">
        <ele>3.98</ele>
        <time>2023-09-10T07:25:34Z</time>
      </trkpt>
      <trkpt lat="44.77041" lon="-1.15597">
        <ele>3.98</ele>
        <time>2023-09-10T07:25:44Z</time>
      </trkpt>
      <trkpt lat="44.77044" lon="-1.15579">
        <ele>3.5</ele>
        <time>2023-09-10T07:25:52Z</time>
      </trkpt>
      <trkpt lat="44.77046" lon="-1.15568">
        <ele>3.98</ele>
        <time>2023-09-10T07:26:00Z</time>
      </trkpt>
      <trkpt lat="44.77038" lon="-1.15551">
        <ele>3.5</ele>
        <time>2023-09-10T07:26:11Z</time>
      </trkpt>
      <trkpt lat="44.77037" lon="-1.15549">
        <ele>4.46</ele>
        <time>2023-09-10T07:26:12Z</time>
      </trkpt>
      <trkpt lat="44.77028" lon="-1.15534">
        <ele>3.5</ele>
        <time>2023-09-10T07:26:20Z</time>
      </trkpt>
      <trkpt lat="44.7702" lon="-1.15518">
        <ele>4.46</ele>
        <time>2023-09-10T07:26:29Z</time>
      </trkpt>
      <trkpt lat="44.77015" lon="-1.15508">
        <ele>4.46</ele>
        <time>2023-09-10T07:26:36Z</time>
      </trkpt>
      <trkpt lat="44.77007" lon="-1.15498">
        <ele>3.98</ele>
        <time>2023-09-10T07:26:43Z</time>
      </trkpt>
      <trkpt lat="44.76999" lon="-1.15487">
        <ele>4.46</ele>
        <time>2023-09-10T07:26:51Z</time>
      </trkpt>
      <trkpt lat="44.76993" lon="-1.15475">
        <ele>3.98</ele>
        <time>2023-09-10T07:26:59Z</time>
      </trkpt>
      <trkpt lat="44.76987" lon="-1.15466">
        <ele>3.98</ele>
        <time>2023-09-10T07:27:06Z</time>
      </trkpt>
      <trkpt lat="44.76979" lon="-1.15456">
        <ele>3.02</ele>
        <time>2023-09-10T07:27:15Z</time>
      </trkpt>
      <trkpt lat="44.7697" lon="-1.15442">
        <ele>3.98</ele>
        <time>2023-09-10T07:27:24Z</time>
      </trkpt>
      <trkpt lat="44.76962" lon="-1.15432">
        <ele>4.46</ele>
        <time>2023-09-10T07:27:33Z</time>
      </trkpt>
      <trkpt lat="44.76955" lon="-1.15422">
        <ele>4.46</ele>
        <time>2023-09-10T07:27:43Z</time>
      </trkpt>
      <trkpt lat="44.76949" lon="-1.15413">
        <ele>3.98</ele>
        <time>2023-09-10T07:27:50Z</time>
      </trkpt>
      <trkpt lat="44.76941" lon="-1.15396">
        <ele>3.98</ele>
        <time>2023-09-10T07:28:00Z</time>
      </trkpt>
      <trkpt lat="44.76934" lon="-1.1538">
        <ele>4.46</ele>
        <time>2023-09-10T07:28:10Z</time>
      </trkpt>
      <trkpt lat="44.76929" lon="-1.15366">
        <ele>3.5</ele>
        <time>2023-09-10T07:28:18Z</time>
      </trkpt>
      <trkpt lat="44.76922" lon="-1.15348">
        <ele>3.98</ele>
        <time>2023-09-10T07:28:28Z</time>
      </trkpt>
      <trkpt lat="44.76913" lon="-1.15337">
        <ele>3.98</ele>
        <time>2023-09-10T07:28:37Z</time>
      </trkpt>
      <trkpt lat="44.76902" lon="-1.15328">
        <ele>3.98</ele>
        <time>2023-09-10T07:28:45Z</time>
      </trkpt>
      <trkpt lat="44.76892" lon="-1.15317">
        <ele>3.98</ele>
        <time>2023-09-10T07:28:54Z</time>
      </trkpt>
      <trkpt lat="44.76882" lon="-1.1531">
        <ele>3.5</ele>
        <time>2023-09-10T07:29:04Z</time>
      </trkpt>
      <trkpt lat="44.7687" lon="-1.15298">
        <ele>3.98</ele>
        <time>2023-09-10T07:29:13Z</time>
      </trkpt>
      <trkpt lat="44.76863" lon="-1.15287">
        <ele>4.46</ele>
        <time>2023-09-10T07:29:21Z</time>
      </trkpt>
      <trkpt lat="44.76854" lon="-1.15266">
        <ele>4.46</ele>
        <time>2023-09-10T07:29:33Z</time>
      </trkpt>
      <trkpt lat="44.76846" lon="-1.15252">
        <ele>4.46</ele>
        <time>2023-09-10T07:29:42Z</time>
      </trkpt>
      <trkpt lat="44.76837" lon="-1.15233">
        <ele>4.46</ele>
        <time>2023-09-10T07:29:52Z</time>
      </trkpt>
      <trkpt lat="44.76829" lon="-1.15221">
        <ele>4.46</ele>
        <time>2023-09-10T07:30:02Z</time>
      </trkpt>
      <trkpt lat="44.76822" lon="-1.15212">
        <ele>4.46</ele>
        <time>2023-09-10T07:30:10Z</time>
      </trkpt>
      <trkpt lat="44.76816" lon="-1.15202">
        <ele>3.98</ele>
        <time>2023-09-10T07:30:17Z</time>
      </trkpt>
      <trkpt lat="44.76808" lon="-1.1519">
        <ele>4.46</ele>
        <time>2023-09-10T07:30:26Z</time>
      </trkpt>
      <trkpt lat="44.768" lon="-1.15179">
        <ele>4.94</ele>
        <time>2023-09-10T07:30:34Z</time>
      </trkpt>
      <trkpt lat="44.76793" lon="-1.15168">
        <ele>4.46</ele>
        <time>2023-09-10T07:30:43Z</time>
      </trkpt>
      <trkpt lat="44.76785" lon="-1.15155">
        <ele>4.46</ele>
        <time>2023-09-10T07:30:52Z</time>
      </trkpt>
      <trkpt lat="44.76779" lon="-1.15145">
        <ele>4.46</ele>
        <time>2023-09-10T07:31:00Z</time>
      </trkpt>
      <trkpt lat="44.76773" lon="-1.15137">
        <ele>3.98</ele>
        <time>2023-09-10T07:31:07Z</time>
      </trkpt>
      <trkpt lat="44.76764" lon="-1.15128">
        <ele>4.46</ele>
        <time>2023-09-10T07:31:14Z</time>
      </trkpt>
      <trkpt lat="44.76755" lon="-1.15121">
        <ele>4.94</ele>
        <time>2023-09-10T07:31:23Z</time>
      </trkpt>
      <trkpt lat="44.76746" lon="-1.15106">
        <ele>4.94</ele>
        <time>2023-09-10T07:31:34Z</time>
      </trkpt>
      <trkpt lat="44.76735" lon="-1.15093">
        <ele>4.94</ele>
        <time>2023-09-10T07:31:44Z</time>
      </trkpt>
      <trkpt lat="44.76732" lon="-1.15089">
        <ele>4.46</ele>
        <time>2023-09-10T07:31:52Z</time>
      </trkpt>
      <trkpt lat="44.76731" lon="-1.15087">
        <ele>4.46</ele>
        <time>2023-09-10T07:32:02Z</time>
      </trkpt>
      <trkpt lat="44.7673" lon="-1.15086">
        <ele>4.46</ele>
        <time>2023-09-10T07:32:14Z</time>
      </trkpt>
      <trkpt lat="44.76728" lon="-1.15085">
        <ele>4.46</ele>
        <time>2023-09-10T07:32:27Z</time>
      </trkpt>
      <trkpt lat="44.76727" lon="-1.15084">
        <ele>4.94</ele>
        <time>2023-09-10T07:32:36Z</time>
      </trkpt>
      <trkpt lat="44.76727" lon="-1.15084">
        <ele>4.94</ele>
        <time>2023-09-10T07:32:45Z</time>
      </trkpt>
      <trkpt lat="44.76727" lon="-1.15084">
        <ele>4.94</ele>
        <time>2023-09-10T07:32:56Z</time>
      </trkpt>
      <trkpt lat="44.76728" lon="-1.15084">
        <ele>4.94</ele>
        <time>2023-09-10T07:33:14Z</time>
      </trkpt>
      <trkpt lat="44.76728" lon="-1.15085">
        <ele>6.39</ele>
        <time>2023-09-10T07:33:32Z</time>
      </trkpt>
      <trkpt lat="44.76728" lon="-1.15085">
        <ele>4.94</ele>
        <time>2023-09-10T07:33:44Z</time>
      </trkpt>
      <trkpt lat="44.76728" lon="-1.15085">
        <ele>4.94</ele>
        <time>2023-09-10T07:33:51Z</time>
      </trkpt>
      <trkpt lat="44.76728" lon="-1.15085">
        <ele>4.94</ele>
        <time>2023-09-10T07:34:06Z</time>
      </trkpt>
      <trkpt lat="44.76728" lon="-1.15084">
        <ele>4.94</ele>
        <time>2023-09-10T07:34:17Z</time>
      </trkpt>
      <trkpt lat="44.76728" lon="-1.15084">
        <ele>4.94</ele>
        <time>2023-09-10T07:34:32Z</time>
      </trkpt>
      <trkpt lat="44.76725" lon="-1.15082">
        <ele>5.91</ele>
        <time>2023-09-10T07:34:44Z</time>
      </trkpt>
      <trkpt lat="44.7672" lon="-1.15076">
        <ele>5.42</ele>
        <time>2023-09-10T07:34:53Z</time>
      </trkpt>
      <trkpt lat="44.76709" lon="-1.15072">
        <ele>5.42</ele>
        <time>2023-09-10T07:35:02Z</time>
      </trkpt>
      <trkpt lat="44.76697" lon="-1.15061">
        <ele>4.94</ele>
        <time>2023-09-10T07:35:11Z</time>
      </trkpt>
      <trkpt lat="44.76689" lon="-1.15054">
        <ele>5.42</ele>
        <time>2023-09-10T07:35:18Z</time>
      </trkpt>
      <trkpt lat="44.76686" lon="-1.15039">
        <ele>5.42</ele>
        <time>2023-09-10T07:35:26Z</time>
      </trkpt>
      <trkpt lat="44.76685" lon="-1.15022">
        <ele>5.42</ele>
        <time>2023-09-10T07:35:34Z</time>
      </trkpt>
      <trkpt lat="44.76681" lon="-1.15005">
        <ele>5.42</ele>
        <time>2023-09-10T07:35:42Z</time>
      </trkpt>
      <trkpt lat="44.76675" lon="-1.14995">
        <ele>5.91</ele>
        <time>2023-09-10T07:35:50Z</time>
      </trkpt>
      <trkpt lat="44.76665" lon="-1.14989">
        <ele>5.42</ele>
        <time>2023-09-10T07:35:59Z</time>
      </trkpt>
      <trkpt lat="44.76648" lon="-1.14991">
        <ele>5.42</ele>
        <time>2023-09-10T07:36:10Z</time>
      </trkpt>
      <trkpt lat="44.76646" lon="-1.14991">
        <ele>4.94</ele>
        <time>2023-09-10T07:36:12Z</time>
      </trkpt>
      <trkpt lat="44.76643" lon="-1.14991">
        <ele>6.39</ele>
        <time>2023-09-10T07:36:14Z</time>
      </trkpt>
      <trkpt lat="44.76627" lon="-1.14994">
        <ele>5.91</ele>
        <time>2023-09-10T07:36:27Z</time>
      </trkpt>
      <trkpt lat="44.76613" lon="-1.14995">
        <ele>5.42</ele>
        <time>2023-09-10T07:36:37Z</time>
      </trkpt>
      <trkpt lat="44.76597" lon="-1.14994">
        <ele>5.91</ele>
        <time>2023-09-10T07:36:47Z</time>
      </trkpt>
      <trkpt lat="44.76587" lon="-1.14995">
        <ele>5.91</ele>
        <time>2023-09-10T07:36:55Z</time>
      </trkpt>
      <trkpt lat="44.76575" lon="-1.14995">
        <ele>6.39</ele>
        <time>2023-09-10T07:37:04Z</time>
      </trkpt>
      <trkpt lat="44.76562" lon="-1.14996">
        <ele>6.39</ele>
        <time>2023-09-10T07:37:14Z</time>
      </trkpt>
      <trkpt lat="44.76548" lon="-1.14996">
        <ele>6.39</ele>
        <time>2023-09-10T07:37:23Z</time>
      </trkpt>
      <trkpt lat="44.76538" lon="-1.14995">
        <ele>6.87</ele>
        <time>2023-09-10T07:37:32Z</time>
      </trkpt>
      <trkpt lat="44.76526" lon="-1.14998">
        <ele>6.39</ele>
        <time>2023-09-10T07:37:42Z</time>
      </trkpt>
      <trkpt lat="44.76511" lon="-1.15">
        <ele>5.91</ele>
        <time>2023-09-10T07:37:53Z</time>
      </trkpt>
      <trkpt lat="44.76503" lon="-1.14997">
        <ele>6.39</ele>
        <time>2023-09-10T07:38:01Z</time>
      </trkpt>
      <trkpt lat="44.76492" lon="-1.14991">
        <ele>6.39</ele>
        <time>2023-09-10T07:38:09Z</time>
      </trkpt>
      <trkpt lat="44.76477" lon="-1.14976">
        <ele>6.39</ele>
        <time>2023-09-10T07:38:21Z</time>
      </trkpt>
      <trkpt lat="44.76465" lon="-1.14967">
        <ele>6.39</ele>
        <time>2023-09-10T07:38:32Z</time>
      </trkpt>
      <trkpt lat="44.76456" lon="-1.14954">
        <ele>7.35</ele>
        <time>2023-09-10T07:38:42Z</time>
      </trkpt>
      <trkpt lat="44.76444" lon="-1.14943">
        <ele>6.39</ele>
        <time>2023-09-10T07:38:52Z</time>
      </trkpt>
      <trkpt lat="44.76431" lon="-1.14932">
        <ele>7.35</ele>
        <time>2023-09-10T07:39:02Z</time>
      </trkpt>
      <trkpt lat="44.7642" lon="-1.14921">
        <ele>7.35</ele>
        <time>2023-09-10T07:39:11Z</time>
      </trkpt>
      <trkpt lat="44.76412" lon="-1.14911">
        <ele>7.35</ele>
        <time>2023-09-10T07:39:19Z</time>
      </trkpt>
      <trkpt lat="44.76401" lon="-1.149">
        <ele>7.83</ele>
        <time>2023-09-10T07:39:28Z</time>
      </trkpt>
      <trkpt lat="44.76388" lon="-1.1489">
        <ele>7.83</ele>
        <time>2023-09-10T07:39:38Z</time>
      </trkpt>
      <trkpt lat="44.76376" lon="-1.14878">
        <ele>7.83</ele>
        <time>2023-09-10T07:39:49Z</time>
      </trkpt>
      <trkpt lat="44.76364" lon="-1.14866">
        <ele>8.31</ele>
        <time>2023-09-10T07:39:58Z</time>
      </trkpt>
      <trkpt lat="44.76355" lon="-1.14855">
        <ele>7.83</ele>
        <time>2023-09-10T07:40:07Z</time>
      </trkpt>
      <trkpt lat="44.76348" lon="-1.14843">
        <ele>7.35</ele>
        <time>2023-09-10T07:40:15Z</time>
      </trkpt>
      <trkpt lat="44.7634" lon="-1.14832">
        <ele>7.83</ele>
        <time>2023-09-10T07:40:26Z</time>
      </trkpt>
      <trkpt lat="44.76326" lon="-1.14819">
        <ele>7.83</ele>
        <time>2023-09-10T07:40:37Z</time>
      </trkpt>
      <trkpt lat="44.76321" lon="-1.14817">
        <ele>8.79</ele>
        <time>2023-09-10T07:40:41Z</time>
      </trkpt>
      <trkpt lat="44.76313" lon="-1.14821">
        <ele>8.79</ele>
        <time>2023-09-10T07:40:45Z</time>
      </trkpt>
      <trkpt lat="44.76301" lon="-1.14834">
        <ele>8.79</ele>
        <time>2023-09-10T07:40:56Z</time>
      </trkpt>
      <trkpt lat="44.76292" lon="-1.14846">
        <ele>9.27</ele>
        <time>2023-09-10T07:41:06Z</time>
      </trkpt>
      <trkpt lat="44.76291" lon="-1.14847">
        <ele>9.27</ele>
        <time>2023-09-10T07:41:07Z</time>
      </trkpt>
      <trkpt lat="44.76278" lon="-1.1485">
        <ele>9.75</ele>
        <time>2023-09-10T07:41:17Z</time>
      </trkpt>
      <trkpt lat="44.76264" lon="-1.14841">
        <ele>10.23</ele>
        <time>2023-09-10T07:41:28Z</time>
      </trkpt>
      <trkpt lat="44.76253" lon="-1.14825">
        <ele>9.27</ele>
        <time>2023-09-10T07:41:38Z</time>
      </trkpt>
      <trkpt lat="44.76243" lon="-1.14812">
        <ele>9.27</ele>
        <time>2023-09-10T07:41:48Z</time>
      </trkpt>
      <trkpt lat="44.76233" lon="-1.14797">
        <ele>9.75</ele>
        <time>2023-09-10T07:41:58Z</time>
      </trkpt>
      <trkpt lat="44.76225" lon="-1.14784">
        <ele>9.75</ele>
        <time>2023-09-10T07:42:06Z</time>
      </trkpt>
      <trkpt lat="44.76215" lon="-1.14767">
        <ele>10.23</ele>
        <time>2023-09-10T07:42:16Z</time>
      </trkpt>
      <trkpt lat="44.76207" lon="-1.14754">
        <ele>9.27</ele>
        <time>2023-09-10T07:42:25Z</time>
      </trkpt>
      <trkpt lat="44.76198" lon="-1.14739">
        <ele>9.75</ele>
        <time>2023-09-10T07:42:34Z</time>
      </trkpt>
      <trkpt lat="44.76197" lon="-1.14735">
        <ele>9.75</ele>
        <time>2023-09-10T07:42:36Z</time>
      </trkpt>
      <trkpt lat="44.76186" lon="-1.14721">
        <ele>9.27</ele>
        <time>2023-09-10T07:42:46Z</time>
      </trkpt>
      <trkpt lat="44.76174" lon="-1.14701">
        <ele>9.27</ele>
        <time>2023-09-10T07:42:59Z</time>
      </trkpt>
      <trkpt lat="44.76164" lon="-1.14685">
        <ele>10.23</ele>
        <time>2023-09-10T07:43:09Z</time>
      </trkpt>
      <trkpt lat="44.76156" lon="-1.14673">
        <ele>9.75</ele>
        <time>2023-09-10T07:43:17Z</time>
      </trkpt>
      <trkpt lat="44.76149" lon="-1.1465">
        <ele>9.75</ele>
        <time>2023-09-10T07:43:29Z</time>
      </trkpt>
      <trkpt lat="44.76151" lon="-1.14636">
        <ele>9.75</ele>
        <time>2023-09-10T07:43:36Z</time>
      </trkpt>
      <trkpt lat="44.76158" lon="-1.14621">
        <ele>9.27</ele>
        <time>2023-09-10T07:43:46Z</time>
      </trkpt>
      <trkpt lat="44.76165" lon="-1.14607">
        <ele>9.27</ele>
        <time>2023-09-10T07:43:54Z</time>
      </trkpt>
      <trkpt lat="44.76171" lon="-1.14588">
        <ele>9.75</ele>
        <time>2023-09-10T07:44:03Z</time>
      </trkpt>
      <trkpt lat="44.76176" lon="-1.14573">
        <ele>8.31</ele>
        <time>2023-09-10T07:44:11Z</time>
      </trkpt>
      <trkpt lat="44.76183" lon="-1.14554">
        <ele>8.79</ele>
        <time>2023-09-10T07:44:20Z</time>
      </trkpt>
      <trkpt lat="44.76188" lon="-1.14538">
        <ele>8.79</ele>
        <time>2023-09-10T07:44:29Z</time>
      </trkpt>
      <trkpt lat="44.76194" lon="-1.14522">
        <ele>8.79</ele>
        <time>2023-09-10T07:44:38Z</time>
      </trkpt>
      <trkpt lat="44.76202" lon="-1.14505">
        <ele>8.31</ele>
        <time>2023-09-10T07:44:48Z</time>
      </trkpt>
      <trkpt lat="44.76207" lon="-1.14491">
        <ele>8.79</ele>
        <time>2023-09-10T07:44:56Z</time>
      </trkpt>
      <trkpt lat="44.76212" lon="-1.14481">
        <ele>8.31</ele>
        <time>2023-09-10T07:45:03Z</time>
      </trkpt>
      <trkpt lat="44.76212" lon="-1.1448">
        <ele>8.31</ele>
        <time>2023-09-10T07:45:14Z</time>
      </trkpt>
      <trkpt lat="44.76212" lon="-1.14478">
        <ele>7.83</ele>
        <time>2023-09-10T07:45:29Z</time>
      </trkpt>
      <trkpt lat="44.76212" lon="-1.14478">
        <ele>8.31</ele>
        <time>2023-09-10T07:45:43Z</time>
      </trkpt>
      <trkpt lat="44.76211" lon="-1.14478">
        <ele>7.83</ele>
        <time>2023-09-10T07:45:45Z</time>
      </trkpt>
      <trkpt lat="44.76207" lon="-1.14475">
        <ele>7.35</ele>
        <time>2023-09-10T07:45:49Z</time>
      </trkpt>
      <trkpt lat="44.76196" lon="-1.14463">
        <ele>6.87</ele>
        <time>2023-09-10T07:45:58Z</time>
      </trkpt>
      <trkpt lat="44.76187" lon="-1.14451">
        <ele>7.35</ele>
        <time>2023-09-10T07:46:07Z</time>
      </trkpt>
      <trkpt lat="44.76182" lon="-1.14443">
        <ele>5.91</ele>
        <time>2023-09-10T07:46:13Z</time>
      </trkpt>
      <trkpt lat="44.76179" lon="-1.14438">
        <ele>6.87</ele>
        <time>2023-09-10T07:46:17Z</time>
      </trkpt>
      <trkpt lat="44.76176" lon="-1.14421">
        <ele>6.87</ele>
        <time>2023-09-10T07:46:26Z</time>
      </trkpt>
      <trkpt lat="44.76173" lon="-1.14411">
        <ele>6.39</ele>
        <time>2023-09-10T07:46:33Z</time>
      </trkpt>
      <trkpt lat="44.76169" lon="-1.14401">
        <ele>7.35</ele>
        <time>2023-09-10T07:46:38Z</time>
      </trkpt>
      <trkpt lat="44.76168" lon="-1.14395">
        <ele>7.35</ele>
        <time>2023-09-10T07:46:42Z</time>
      </trkpt>
      <trkpt lat="44.7616" lon="-1.14384">
        <ele>6.87</ele>
        <time>2023-09-10T07:46:51Z</time>
      </trkpt>
      <trkpt lat="44.76157" lon="-1.14381">
        <ele>7.83</ele>
        <time>2023-09-10T07:46:53Z</time>
      </trkpt>
      <trkpt lat="44.76154" lon="-1.14376">
        <ele>6.39</ele>
        <time>2023-09-10T07:46:56Z</time>
      </trkpt>
      <trkpt lat="44.76149" lon="-1.14365">
        <ele>7.35</ele>
        <time>2023-09-10T07:47:03Z</time>
      </trkpt>
      <trkpt lat="44.76143" lon="-1.14349">
        <ele>6.39</ele>
        <time>2023-09-10T07:47:12Z</time>
      </trkpt>
      <trkpt lat="44.76136" lon="-1.14336">
        <ele>7.83</ele>
        <time>2023-09-10T07:47:20Z</time>
      </trkpt>
      <trkpt lat="44.7613" lon="-1.14326">
        <ele>7.35</ele>
        <time>2023-09-10T07:47:28Z</time>
      </trkpt>
      <trkpt lat="44.76129" lon="-1.14325">
        <ele>7.83</ele>
        <time>2023-09-10T07:47:29Z</time>
      </trkpt>
      <trkpt lat="44.76121" lon="-1.14314">
        <ele>7.83</ele>
        <time>2023-09-10T07:47:37Z</time>
      </trkpt>
      <trkpt lat="44.76117" lon="-1.14307">
        <ele>6.87</ele>
        <time>2023-09-10T07:47:41Z</time>
      </trkpt>
      <trkpt lat="44.7611" lon="-1.143">
        <ele>7.83</ele>
        <time>2023-09-10T07:47:48Z</time>
      </trkpt>
      <trkpt lat="44.76102" lon="-1.14285">
        <ele>6.39</ele>
        <time>2023-09-10T07:47:58Z</time>
      </trkpt>
      <trkpt lat="44.76097" lon="-1.14272">
        <ele>6.87</ele>
        <time>2023-09-10T07:48:06Z</time>
      </trkpt>
      <trkpt lat="44.76093" lon="-1.14262">
        <ele>8.31</ele>
        <time>2023-09-10T07:48:13Z</time>
      </trkpt>
      <trkpt lat="44.76092" lon="-1.14259">
        <ele>6.39</ele>
        <time>2023-09-10T07:48:15Z</time>
      </trkpt>
      <trkpt lat="44.76085" lon="-1.14247">
        <ele>7.83</ele>
        <time>2023-09-10T07:48:24Z</time>
      </trkpt>
      <trkpt lat="44.76076" lon="-1.14236">
        <ele>7.83</ele>
        <time>2023-09-10T07:48:34Z</time>
      </trkpt>
      <trkpt lat="44.76067" lon="-1.14227">
        <ele>7.35</ele>
        <time>2023-09-10T07:48:43Z</time>
      </trkpt>
      <trkpt lat="44.76061" lon="-1.14218">
        <ele>7.35</ele>
        <time>2023-09-10T07:48:51Z</time>
      </trkpt>
      <trkpt lat="44.7606" lon="-1.14216">
        <ele>6.87</ele>
        <time>2023-09-10T07:48:52Z</time>
      </trkpt>
      <trkpt lat="44.76059" lon="-1.14209">
        <ele>7.35</ele>
        <time>2023-09-10T07:48:56Z</time>
      </trkpt>
      <trkpt lat="44.76052" lon="-1.14194">
        <ele>7.83</ele>
        <time>2023-09-10T07:49:05Z</time>
      </trkpt>
      <trkpt lat="44.76044" lon="-1.14183">
        <ele>6.87</ele>
        <time>2023-09-10T07:49:14Z</time>
      </trkpt>
      <trkpt lat="44.76037" lon="-1.14168">
        <ele>6.87</ele>
        <time>2023-09-10T07:49:22Z</time>
      </trkpt>
      <trkpt lat="44.7603" lon="-1.14156">
        <ele>6.87</ele>
        <time>2023-09-10T07:49:30Z</time>
      </trkpt>
      <trkpt lat="44.76022" lon="-1.14143">
        <ele>6.87</ele>
        <time>2023-09-10T07:49:39Z</time>
      </trkpt>
      <trkpt lat="44.76014" lon="-1.14133">
        <ele>6.39</ele>
        <time>2023-09-10T07:49:46Z</time>
      </trkpt>
      <trkpt lat="44.76005" lon="-1.14125">
        <ele>6.87</ele>
        <time>2023-09-10T07:49:54Z</time>
      </trkpt>
      <trkpt lat="44.75996" lon="-1.14113">
        <ele>6.39</ele>
        <time>2023-09-10T07:50:03Z</time>
      </trkpt>
      <trkpt lat="44.75994" lon="-1.14108">
        <ele>7.83</ele>
        <time>2023-09-10T07:50:06Z</time>
      </trkpt>
      <trkpt lat="44.75988" lon="-1.14095">
        <ele>6.39</ele>
        <time>2023-09-10T07:50:14Z</time>
      </trkpt>
      <trkpt lat="44.75982" lon="-1.14086">
        <ele>6.87</ele>
        <time>2023-09-10T07:50:21Z</time>
      </trkpt>
      <trkpt lat="44.75974" lon="-1.14074">
        <ele>6.39</ele>
        <time>2023-09-10T07:50:29Z</time>
      </trkpt>
      <trkpt lat="44.75967" lon="-1.14063">
        <ele>6.87</ele>
        <time>2023-09-10T07:50:36Z</time>
      </trkpt>
      <trkpt lat="44.75959" lon="-1.14052">
        <ele>5.91</ele>
        <time>2023-09-10T07:50:44Z</time>
      </trkpt>
      <trkpt lat="44.75953" lon="-1.14039">
        <ele>6.39</ele>
        <time>2023-09-10T07:50:53Z</time>
      </trkpt>
      <trkpt lat="44.75946" lon="-1.14025">
        <ele>6.39</ele>
        <time>2023-09-10T07:51:01Z</time>
      </trkpt>
      <trkpt lat="44.75939" lon="-1.14014">
        <ele>6.39</ele>
        <time>2023-09-10T07:51:09Z</time>
      </trkpt>
      <trkpt lat="44.7593" lon="-1.14003">
        <ele>5.91</ele>
        <time>2023-09-10T07:51:18Z</time>
      </trkpt>
      <trkpt lat="44.75921" lon="-1.13992">
        <ele>6.39</ele>
        <time>2023-09-10T07:51:27Z</time>
      </trkpt>
      <trkpt lat="44.75912" lon="-1.13977">
        <ele>6.39</ele>
        <time>2023-09-10T07:51:37Z</time>
      </trkpt>
      <trkpt lat="44.75903" lon="-1.13965">
        <ele>6.39</ele>
        <time>2023-09-10T07:51:45Z</time>
      </trkpt>
      <trkpt lat="44.75895" lon="-1.13953">
        <ele>6.87</ele>
        <time>2023-09-10T07:51:53Z</time>
      </trkpt>
      <trkpt lat="44.75886" lon="-1.1394">
        <ele>6.39</ele>
        <time>2023-09-10T07:52:01Z</time>
      </trkpt>
      <trkpt lat="44.75879" lon="-1.13927">
        <ele>5.91</ele>
        <time>2023-09-10T07:52:10Z</time>
      </trkpt>
      <trkpt lat="44.75869" lon="-1.13913">
        <ele>5.91</ele>
        <time>2023-09-10T07:52:20Z</time>
      </trkpt>
      <trkpt lat="44.75857" lon="-1.13894">
        <ele>6.87</ele>
        <time>2023-09-10T07:52:31Z</time>
      </trkpt>
      <trkpt lat="44.75846" lon="-1.13881">
        <ele>5.91</ele>
        <time>2023-09-10T07:52:40Z</time>
      </trkpt>
      <trkpt lat="44.75835" lon="-1.13869">
        <ele>5.91</ele>
        <time>2023-09-10T07:52:50Z</time>
      </trkpt>
      <trkpt lat="44.75824" lon="-1.13858">
        <ele>5.91</ele>
        <time>2023-09-10T07:53:00Z</time>
      </trkpt>
      <trkpt lat="44.75814" lon="-1.13843">
        <ele>5.91</ele>
        <time>2023-09-10T07:53:10Z</time>
      </trkpt>
      <trkpt lat="44.75807" lon="-1.13829">
        <ele>6.39</ele>
        <time>2023-09-10T07:53:18Z</time>
      </trkpt>
      <trkpt lat="44.75801" lon="-1.13821">
        <ele>6.39</ele>
        <time>2023-09-10T07:53:23Z</time>
      </trkpt>
      <trkpt lat="44.75793" lon="-1.13805">
        <ele>5.91</ele>
        <time>2023-09-10T07:53:33Z</time>
      </trkpt>
      <trkpt lat="44.75785" lon="-1.13793">
        <ele>6.87</ele>
        <time>2023-09-10T07:53:41Z</time>
      </trkpt>
      <trkpt lat="44.75776" lon="-1.13782">
        <ele>5.91</ele>
        <time>2023-09-10T07:53:50Z</time>
      </trkpt>
      <trkpt lat="44.75765" lon="-1.13762">
        <ele>6.39</ele>
        <time>2023-09-10T07:54:01Z</time>
      </trkpt>
      <trkpt lat="44.75757" lon="-1.13749">
        <ele>6.39</ele>
        <time>2023-09-10T07:54:09Z</time>
      </trkpt>
      <trkpt lat="44.75746" lon="-1.13732">
        <ele>5.91</ele>
        <time>2023-09-10T07:54:21Z</time>
      </trkpt>
      <trkpt lat="44.75737" lon="-1.13718">
        <ele>5.42</ele>
        <time>2023-09-10T07:54:31Z</time>
      </trkpt>
      <trkpt lat="44.75726" lon="-1.13703">
        <ele>6.39</ele>
        <time>2023-09-10T07:54:42Z</time>
      </trkpt>
      <trkpt lat="44.75721" lon="-1.13689">
        <ele>6.87</ele>
        <time>2023-09-10T07:54:50Z</time>
      </trkpt>
      <trkpt lat="44.75718" lon="-1.13683">
        <ele>5.42</ele>
        <time>2023-09-10T07:54:53Z</time>
      </trkpt>
      <trkpt lat="44.75713" lon="-1.13666">
        <ele>5.91</ele>
        <time>2023-09-10T07:55:03Z</time>
      </trkpt>
      <trkpt lat="44.75708" lon="-1.13654">
        <ele>6.39</ele>
        <time>2023-09-10T07:55:11Z</time>
      </trkpt>
      <trkpt lat="44.75701" lon="-1.13636">
        <ele>5.42</ele>
        <time>2023-09-10T07:55:22Z</time>
      </trkpt>
      <trkpt lat="44.75691" lon="-1.13624">
        <ele>6.39</ele>
        <time>2023-09-10T07:55:31Z</time>
      </trkpt>
      <trkpt lat="44.75686" lon="-1.13613">
        <ele>5.91</ele>
        <time>2023-09-10T07:55:39Z</time>
      </trkpt>
      <trkpt lat="44.75677" lon="-1.13603">
        <ele>5.91</ele>
        <time>2023-09-10T07:55:47Z</time>
      </trkpt>
      <trkpt lat="44.75666" lon="-1.13592">
        <ele>6.39</ele>
        <time>2023-09-10T07:55:57Z</time>
      </trkpt>
      <trkpt lat="44.75658" lon="-1.13581">
        <ele>6.39</ele>
        <time>2023-09-10T07:56:05Z</time>
      </trkpt>
      <trkpt lat="44.7565" lon="-1.13567">
        <ele>6.39</ele>
        <time>2023-09-10T07:56:14Z</time>
      </trkpt>
      <trkpt lat="44.75641" lon="-1.13554">
        <ele>5.91</ele>
        <time>2023-09-10T07:56:24Z</time>
      </trkpt>
      <trkpt lat="44.75627" lon="-1.13541">
        <ele>5.91</ele>
        <time>2023-09-10T07:56:35Z</time>
      </trkpt>
      <trkpt lat="44.75616" lon="-1.13532">
        <ele>5.91</ele>
        <time>2023-09-10T07:56:43Z</time>
      </trkpt>
      <trkpt lat="44.75603" lon="-1.13524">
        <ele>4.94</ele>
        <time>2023-09-10T07:56:53Z</time>
      </trkpt>
      <trkpt lat="44.75592" lon="-1.13514">
        <ele>5.42</ele>
        <time>2023-09-10T07:57:01Z</time>
      </trkpt>
      <trkpt lat="44.75583" lon="-1.13506">
        <ele>5.42</ele>
        <time>2023-09-10T07:57:09Z</time>
      </trkpt>
      <trkpt lat="44.7557" lon="-1.13495">
        <ele>4.46</ele>
        <time>2023-09-10T07:57:19Z</time>
      </trkpt>
      <trkpt lat="44.75556" lon="-1.13482">
        <ele>4.94</ele>
        <time>2023-09-10T07:57:30Z</time>
      </trkpt>
      <trkpt lat="44.75539" lon="-1.13469">
        <ele>3.98</ele>
        <time>2023-09-10T07:57:42Z</time>
      </trkpt>
      <trkpt lat="44.75525" lon="-1.13456">
        <ele>3.98</ele>
        <time>2023-09-10T07:57:54Z</time>
      </trkpt>
      <trkpt lat="44.75512" lon="-1.13442">
        <ele>3.5</ele>
        <time>2023-09-10T07:58:05Z</time>
      </trkpt>
      <trkpt lat="44.75503" lon="-1.1343">
        <ele>4.94</ele>
        <time>2023-09-10T07:58:16Z</time>
      </trkpt>
      <trkpt lat="44.75493" lon="-1.13418">
        <ele>2.54</ele>
        <time>2023-09-10T07:58:25Z</time>
      </trkpt>
      <trkpt lat="44.75479" lon="-1.13405">
        <ele>3.98</ele>
        <time>2023-09-10T07:58:35Z</time>
      </trkpt>
      <trkpt lat="44.75472" lon="-1.134">
        <ele>3.98</ele>
        <time>2023-09-10T07:58:44Z</time>
      </trkpt>
      <trkpt lat="44.75473" lon="-1.134">
        <ele>3.98</ele>
        <time>2023-09-10T07:58:54Z</time>
      </trkpt>
      <trkpt lat="44.75472" lon="-1.134">
        <ele>4.46</ele>
        <time>2023-09-10T07:59:05Z</time>
      </trkpt>
      <trkpt lat="44.75471" lon="-1.13398">
        <ele>4.94</ele>
        <time>2023-09-10T07:59:07Z</time>
      </trkpt>
      <trkpt lat="44.75463" lon="-1.13393">
        <ele>4.46</ele>
        <time>2023-09-10T07:59:13Z</time>
      </trkpt>
      <trkpt lat="44.75451" lon="-1.13383">
        <ele>5.42</ele>
        <time>2023-09-10T07:59:22Z</time>
      </trkpt>
      <trkpt lat="44.75442" lon="-1.13367">
        <ele>4.94</ele>
        <time>2023-09-10T07:59:33Z</time>
      </trkpt>
      <trkpt lat="44.75433" lon="-1.13354">
        <ele>4.46</ele>
        <time>2023-09-10T07:59:43Z</time>
      </trkpt>
      <trkpt lat="44.75424" lon="-1.13342">
        <ele>3.98</ele>
        <time>2023-09-10T07:59:53Z</time>
      </trkpt>
      <trkpt lat="44.75415" lon="-1.13335">
        <ele>5.42</ele>
        <time>2023-09-10T08:00:02Z</time>
      </trkpt>
      <trkpt lat="44.75404" lon="-1.13323">
        <ele>5.42</ele>
        <time>2023-09-10T08:00:12Z</time>
      </trkpt>
      <trkpt lat="44.75396" lon="-1.13313">
        <ele>4.46</ele>
        <time>2023-09-10T08:00:21Z</time>
      </trkpt>
      <trkpt lat="44.75388" lon="-1.13305">
        <ele>5.42</ele>
        <time>2023-09-10T08:00:28Z</time>
      </trkpt>
      <trkpt lat="44.7538" lon="-1.13295">
        <ele>5.42</ele>
        <time>2023-09-10T08:00:36Z</time>
      </trkpt>
      <trkpt lat="44.75369" lon="-1.13283">
        <ele>3.98</ele>
        <time>2023-09-10T08:00:46Z</time>
      </trkpt>
      <trkpt lat="44.75356" lon="-1.13269">
        <ele>4.94</ele>
        <time>2023-09-10T08:00:58Z</time>
      </trkpt>
      <trkpt lat="44.75349" lon="-1.13255">
        <ele>4.94</ele>
        <time>2023-09-10T08:01:07Z</time>
      </trkpt>
      <trkpt lat="44.7534" lon="-1.13244">
        <ele>4.46</ele>
        <time>2023-09-10T08:01:16Z</time>
      </trkpt>
      <trkpt lat="44.75326" lon="-1.13231">
        <ele>3.98</ele>
        <time>2023-09-10T08:01:28Z</time>
      </trkpt>
      <trkpt lat="44.75319" lon="-1.13221">
        <ele>4.46</ele>
        <time>2023-09-10T08:01:36Z</time>
      </trkpt>
      <trkpt lat="44.75311" lon="-1.13211">
        <ele>4.46</ele>
        <time>2023-09-10T08:01:44Z</time>
      </trkpt>
      <trkpt lat="44.753" lon="-1.13199">
        <ele>5.42</ele>
        <time>2023-09-10T08:01:54Z</time>
      </trkpt>
      <trkpt lat="44.75292" lon="-1.13185">
        <ele>4.46</ele>
        <time>2023-09-10T08:02:03Z</time>
      </trkpt>
      <trkpt lat="44.75282" lon="-1.13178">
        <ele>4.94</ele>
        <time>2023-09-10T08:02:11Z</time>
      </trkpt>
      <trkpt lat="44.75274" lon="-1.13165">
        <ele>4.46</ele>
        <time>2023-09-10T08:02:19Z</time>
      </trkpt>
      <trkpt lat="44.75268" lon="-1.13156">
        <ele>5.42</ele>
        <time>2023-09-10T08:02:26Z</time>
      </trkpt>
      <trkpt lat="44.75263" lon="-1.13148">
        <ele>4.46</ele>
        <time>2023-09-10T08:02:33Z</time>
      </trkpt>
      <trkpt lat="44.75258" lon="-1.13135">
        <ele>4.94</ele>
        <time>2023-09-10T08:02:41Z</time>
      </trkpt>
      <trkpt lat="44.75252" lon="-1.13126">
        <ele>6.39</ele>
        <time>2023-09-10T08:02:48Z</time>
      </trkpt>
      <trkpt lat="44.75248" lon="-1.13114">
        <ele>6.39</ele>
        <time>2023-09-10T08:02:57Z</time>
      </trkpt>
      <trkpt lat="44.75238" lon="-1.13097">
        <ele>5.91</ele>
        <time>2023-09-10T08:03:09Z</time>
      </trkpt>
      <trkpt lat="44.75234" lon="-1.13084">
        <ele>6.39</ele>
        <time>2023-09-10T08:03:17Z</time>
      </trkpt>
      <trkpt lat="44.75233" lon="-1.13083">
        <ele>6.87</ele>
        <time>2023-09-10T08:03:18Z</time>
      </trkpt>
      <trkpt lat="44.75228" lon="-1.13073">
        <ele>5.91</ele>
        <time>2023-09-10T08:03:25Z</time>
      </trkpt>
      <trkpt lat="44.75222" lon="-1.13062">
        <ele>5.91</ele>
        <time>2023-09-10T08:03:33Z</time>
      </trkpt>
      <trkpt lat="44.75214" lon="-1.13047">
        <ele>6.39</ele>
        <time>2023-09-10T08:03:43Z</time>
      </trkpt>
      <trkpt lat="44.75207" lon="-1.13034">
        <ele>6.87</ele>
        <time>2023-09-10T08:03:52Z</time>
      </trkpt>
      <trkpt lat="44.75204" lon="-1.13028">
        <ele>5.91</ele>
        <time>2023-09-10T08:04:00Z</time>
      </trkpt>
      <trkpt lat="44.75204" lon="-1.1303">
        <ele>6.39</ele>
        <time>2023-09-10T08:04:10Z</time>
      </trkpt>
      <trkpt lat="44.75204" lon="-1.1303">
        <ele>5.91</ele>
        <time>2023-09-10T08:04:26Z</time>
      </trkpt>
      <trkpt lat="44.75204" lon="-1.1303">
        <ele>5.91</ele>
        <time>2023-09-10T08:04:40Z</time>
      </trkpt>
      <trkpt lat="44.75204" lon="-1.1303">
        <ele>5.42</ele>
        <time>2023-09-10T08:04:54Z</time>
      </trkpt>
      <trkpt lat="44.75205" lon="-1.1303">
        <ele>4.94</ele>
        <time>2023-09-10T08:05:11Z</time>
      </trkpt>
      <trkpt lat="44.75204" lon="-1.1303">
        <ele>4.94</ele>
        <time>2023-09-10T08:05:25Z</time>
      </trkpt>
      <trkpt lat="44.75204" lon="-1.13031">
        <ele>3.98</ele>
        <time>2023-09-10T08:05:40Z</time>
      </trkpt>
      <trkpt lat="44.75204" lon="-1.13031">
        <ele>3.98</ele>
        <time>2023-09-10T08:05:55Z</time>
      </trkpt>
      <trkpt lat="44.75204" lon="-1.13031">
        <ele>3.98</ele>
        <time>2023-09-10T08:06:10Z</time>
      </trkpt>
      <trkpt lat="44.75205" lon="-1.13031">
        <ele>3.5</ele>
        <time>2023-09-10T08:06:24Z</time>
      </trkpt>
      <trkpt lat="44.75206" lon="-1.13031">
        <ele>3.5</ele>
        <time>2023-09-10T08:06:40Z</time>
      </trkpt>
      <trkpt lat="44.75207" lon="-1.13033">
        <ele>3.02</ele>
        <time>2023-09-10T08:06:50Z</time>
      </trkpt>
      <trkpt lat="44.75207" lon="-1.13033">
        <ele>2.54</ele>
        <time>2023-09-10T08:07:04Z</time>
      </trkpt>
      <trkpt lat="44.75209" lon="-1.13036">
        <ele>2.54</ele>
        <time>2023-09-10T08:07:17Z</time>
      </trkpt>
      <trkpt lat="44.75214" lon="-1.13047">
        <ele>3.02</ele>
        <time>2023-09-10T08:07:23Z</time>
      </trkpt>
      <trkpt lat="44.75222" lon="-1.13061">
        <ele>3.02</ele>
        <time>2023-09-10T08:07:32Z</time>
      </trkpt>
      <trkpt lat="44.75231" lon="-1.13073">
        <ele>3.5</ele>
        <time>2023-09-10T08:07:40Z</time>
      </trkpt>
      <trkpt lat="44.75237" lon="-1.1309">
        <ele>3.5</ele>
        <time>2023-09-10T08:07:48Z</time>
      </trkpt>
      <trkpt lat="44.75241" lon="-1.13097">
        <ele>3.02</ele>
        <time>2023-09-10T08:07:52Z</time>
      </trkpt>
      <trkpt lat="44.75247" lon="-1.13112">
        <ele>3.02</ele>
        <time>2023-09-10T08:08:00Z</time>
      </trkpt>
      <trkpt lat="44.7525" lon="-1.1312">
        <ele>2.54</ele>
        <time>2023-09-10T08:08:07Z</time>
      </trkpt>
      <trkpt lat="44.75254" lon="-1.13136">
        <ele>3.02</ele>
        <time>2023-09-10T08:08:16Z</time>
      </trkpt>
      <trkpt lat="44.75258" lon="-1.13148">
        <ele>2.54</ele>
        <time>2023-09-10T08:08:23Z</time>
      </trkpt>
      <trkpt lat="44.75267" lon="-1.13162">
        <ele>2.06</ele>
        <time>2023-09-10T08:08:32Z</time>
      </trkpt>
      <trkpt lat="44.75277" lon="-1.13175">
        <ele>2.06</ele>
        <time>2023-09-10T08:08:40Z</time>
      </trkpt>
      <trkpt lat="44.75288" lon="-1.13189">
        <ele>2.54</ele>
        <time>2023-09-10T08:08:49Z</time>
      </trkpt>
      <trkpt lat="44.75298" lon="-1.13199">
        <ele>2.06</ele>
        <time>2023-09-10T08:08:58Z</time>
      </trkpt>
      <trkpt lat="44.75307" lon="-1.13205">
        <ele>1.1</ele>
        <time>2023-09-10T08:09:05Z</time>
      </trkpt>
      <trkpt lat="44.75313" lon="-1.13214">
        <ele>1.1</ele>
        <time>2023-09-10T08:09:12Z</time>
      </trkpt>
      <trkpt lat="44.75323" lon="-1.13224">
        <ele>2.06</ele>
        <time>2023-09-10T08:09:20Z</time>
      </trkpt>
      <trkpt lat="44.7533" lon="-1.13235">
        <ele>2.06</ele>
        <time>2023-09-10T08:09:27Z</time>
      </trkpt>
      <trkpt lat="44.7534" lon="-1.13247">
        <ele>1.58</ele>
        <time>2023-09-10T08:09:36Z</time>
      </trkpt>
      <trkpt lat="44.75348" lon="-1.13258">
        <ele>0.62</ele>
        <time>2023-09-10T08:09:45Z</time>
      </trkpt>
      <trkpt lat="44.75358" lon="-1.13272">
        <ele>1.1</ele>
        <time>2023-09-10T08:09:53Z</time>
      </trkpt>
      <trkpt lat="44.75366" lon="-1.13285">
        <ele>-0.34</ele>
        <time>2023-09-10T08:10:00Z</time>
      </trkpt>
      <trkpt lat="44.75377" lon="-1.13298">
        <ele>-0.34</ele>
        <time>2023-09-10T08:10:10Z</time>
      </trkpt>
      <trkpt lat="44.75386" lon="-1.1331">
        <ele>1.1</ele>
        <time>2023-09-10T08:10:18Z</time>
      </trkpt>
      <trkpt lat="44.75397" lon="-1.13323">
        <ele>0.62</ele>
        <time>2023-09-10T08:10:27Z</time>
      </trkpt>
      <trkpt lat="44.75407" lon="-1.13333">
        <ele>-0.82</ele>
        <time>2023-09-10T08:10:37Z</time>
      </trkpt>
      <trkpt lat="44.75417" lon="-1.13345">
        <ele>1.1</ele>
        <time>2023-09-10T08:10:46Z</time>
      </trkpt>
      <trkpt lat="44.75425" lon="-1.13354">
        <ele>0.14</ele>
        <time>2023-09-10T08:10:53Z</time>
      </trkpt>
      <trkpt lat="44.75436" lon="-1.13364">
        <ele>0.62</ele>
        <time>2023-09-10T08:11:02Z</time>
      </trkpt>
      <trkpt lat="44.75441" lon="-1.13377">
        <ele>0.62</ele>
        <time>2023-09-10T08:11:10Z</time>
      </trkpt>
      <trkpt lat="44.75445" lon="-1.1339">
        <ele>0.14</ele>
        <time>2023-09-10T08:11:17Z</time>
      </trkpt>
      <trkpt lat="44.75452" lon="-1.13401">
        <ele>0.62</ele>
        <time>2023-09-10T08:11:24Z</time>
      </trkpt>
      <trkpt lat="44.75456" lon="-1.13409">
        <ele>0.14</ele>
        <time>2023-09-10T08:11:29Z</time>
      </trkpt>
      <trkpt lat="44.75461" lon="-1.13414">
        <ele>-0.82</ele>
        <time>2023-09-10T08:11:34Z</time>
      </trkpt>
      <trkpt lat="44.75469" lon="-1.13423">
        <ele>-0.82</ele>
        <time>2023-09-10T08:11:42Z</time>
      </trkpt>
      <trkpt lat="44.7548" lon="-1.13431">
        <ele>-0.34</ele>
        <time>2023-09-10T08:11:51Z</time>
      </trkpt>
      <trkpt lat="44.7549" lon="-1.13438">
        <ele>-0.34</ele>
        <time>2023-09-10T08:12:00Z</time>
      </trkpt>
      <trkpt lat="44.75499" lon="-1.13447">
        <ele>0.14</ele>
        <time>2023-09-10T08:12:08Z</time>
      </trkpt>
      <trkpt lat="44.7551" lon="-1.13453">
        <ele>-0.82</ele>
        <time>2023-09-10T08:12:16Z</time>
      </trkpt>
      <trkpt lat="44.75513" lon="-1.13453">
        <ele>0.14</ele>
        <time>2023-09-10T08:12:18Z</time>
      </trkpt>
      <trkpt lat="44.75518" lon="-1.13456">
        <ele>-0.82</ele>
        <time>2023-09-10T08:12:22Z</time>
      </trkpt>
      <trkpt lat="44.75533" lon="-1.13464">
        <ele>-0.34</ele>
        <time>2023-09-10T08:12:32Z</time>
      </trkpt>
      <trkpt lat="44.75545" lon="-1.13472">
        <ele>-0.34</ele>
        <time>2023-09-10T08:12:39Z</time>
      </trkpt>
      <trkpt lat="44.7556" lon="-1.13479">
        <ele>-0.34</ele>
        <time>2023-09-10T08:12:48Z</time>
      </trkpt>
      <trkpt lat="44.75567" lon="-1.13484">
        <ele>0.14</ele>
        <time>2023-09-10T08:12:54Z</time>
      </trkpt>
      <trkpt lat="44.75575" lon="-1.13495">
        <ele>-0.82</ele>
        <time>2023-09-10T08:13:04Z</time>
      </trkpt>
      <trkpt lat="44.75576" lon="-1.13499">
        <ele>-0.34</ele>
        <time>2023-09-10T08:13:12Z</time>
      </trkpt>
      <trkpt lat="44.75577" lon="-1.135">
        <ele>-0.34</ele>
        <time>2023-09-10T08:13:19Z</time>
      </trkpt>
      <trkpt lat="44.7558" lon="-1.13502">
        <ele>-0.82</ele>
        <time>2023-09-10T08:13:28Z</time>
      </trkpt>
      <trkpt lat="44.75582" lon="-1.13504">
        <ele>0.14</ele>
        <time>2023-09-10T08:13:30Z</time>
      </trkpt>
      <trkpt lat="44.75586" lon="-1.13508">
        <ele>0.14</ele>
        <time>2023-09-10T08:13:37Z</time>
      </trkpt>
      <trkpt lat="44.75586" lon="-1.13508">
        <ele>0.14</ele>
        <time>2023-09-10T08:13:51Z</time>
      </trkpt>
      <trkpt lat="44.75587" lon="-1.13509">
        <ele>0.14</ele>
        <time>2023-09-10T08:13:57Z</time>
      </trkpt>
      <trkpt lat="44.75599" lon="-1.1352">
        <ele>1.1</ele>
        <time>2023-09-10T08:14:06Z</time>
      </trkpt>
      <trkpt lat="44.75615" lon="-1.13533">
        <ele>0.14</ele>
        <time>2023-09-10T08:14:17Z</time>
      </trkpt>
      <trkpt lat="44.75622" lon="-1.13538">
        <ele>0.62</ele>
        <time>2023-09-10T08:14:25Z</time>
      </trkpt>
      <trkpt lat="44.75632" lon="-1.13544">
        <ele>1.1</ele>
        <time>2023-09-10T08:14:34Z</time>
      </trkpt>
      <trkpt lat="44.75645" lon="-1.13557">
        <ele>0.62</ele>
        <time>2023-09-10T08:14:43Z</time>
      </trkpt>
      <trkpt lat="44.75655" lon="-1.13567">
        <ele>0.14</ele>
        <time>2023-09-10T08:14:52Z</time>
      </trkpt>
      <trkpt lat="44.75665" lon="-1.1358">
        <ele>1.1</ele>
        <time>2023-09-10T08:15:02Z</time>
      </trkpt>
      <trkpt lat="44.75673" lon="-1.13595">
        <ele>0.14</ele>
        <time>2023-09-10T08:15:11Z</time>
      </trkpt>
      <trkpt lat="44.7568" lon="-1.13604">
        <ele>1.1</ele>
        <time>2023-09-10T08:15:20Z</time>
      </trkpt>
      <trkpt lat="44.75685" lon="-1.13608">
        <ele>0.62</ele>
        <time>2023-09-10T08:15:28Z</time>
      </trkpt>
      <trkpt lat="44.75686" lon="-1.13609">
        <ele>0.62</ele>
        <time>2023-09-10T08:15:30Z</time>
      </trkpt>
      <trkpt lat="44.75694" lon="-1.1362">
        <ele>1.58</ele>
        <time>2023-09-10T08:15:38Z</time>
      </trkpt>
      <trkpt lat="44.75702" lon="-1.13633">
        <ele>1.1</ele>
        <time>2023-09-10T08:15:49Z</time>
      </trkpt>
      <trkpt lat="44.75704" lon="-1.13636">
        <ele>0.14</ele>
        <time>2023-09-10T08:15:51Z</time>
      </trkpt>
      <trkpt lat="44.7571" lon="-1.13646">
        <ele>0.62</ele>
        <time>2023-09-10T08:15:58Z</time>
      </trkpt>
      <trkpt lat="44.75715" lon="-1.13659">
        <ele>0.62</ele>
        <time>2023-09-10T08:16:06Z</time>
      </trkpt>
      <trkpt lat="44.75722" lon="-1.13673">
        <ele>1.58</ele>
        <time>2023-09-10T08:16:15Z</time>
      </trkpt>
      <trkpt lat="44.75729" lon="-1.13685">
        <ele>0.62</ele>
        <time>2023-09-10T08:16:23Z</time>
      </trkpt>
      <trkpt lat="44.75736" lon="-1.13699">
        <ele>1.1</ele>
        <time>2023-09-10T08:16:32Z</time>
      </trkpt>
      <trkpt lat="44.75741" lon="-1.1371">
        <ele>0.14</ele>
        <time>2023-09-10T08:16:39Z</time>
      </trkpt>
      <trkpt lat="44.75747" lon="-1.13724">
        <ele>0.62</ele>
        <time>2023-09-10T08:16:47Z</time>
      </trkpt>
      <trkpt lat="44.75752" lon="-1.13734">
        <ele>0.62</ele>
        <time>2023-09-10T08:16:54Z</time>
      </trkpt>
      <trkpt lat="44.75758" lon="-1.13745">
        <ele>1.58</ele>
        <time>2023-09-10T08:17:01Z</time>
      </trkpt>
      <trkpt lat="44.75766" lon="-1.13759">
        <ele>1.1</ele>
        <time>2023-09-10T08:17:09Z</time>
      </trkpt>
      <trkpt lat="44.75776" lon="-1.13774">
        <ele>0.62</ele>
        <time>2023-09-10T08:17:18Z</time>
      </trkpt>
      <trkpt lat="44.75782" lon="-1.13785">
        <ele>0.62</ele>
        <time>2023-09-10T08:17:26Z</time>
      </trkpt>
      <trkpt lat="44.75788" lon="-1.13797">
        <ele>0.14</ele>
        <time>2023-09-10T08:17:33Z</time>
      </trkpt>
      <trkpt lat="44.75795" lon="-1.13806">
        <ele>-0.82</ele>
        <time>2023-09-10T08:17:39Z</time>
      </trkpt>
      <trkpt lat="44.75801" lon="-1.13817">
        <ele>0.62</ele>
        <time>2023-09-10T08:17:46Z</time>
      </trkpt>
      <trkpt lat="44.75806" lon="-1.13826">
        <ele>0.62</ele>
        <time>2023-09-10T08:17:52Z</time>
      </trkpt>
      <trkpt lat="44.75814" lon="-1.13837">
        <ele>-1.3</ele>
        <time>2023-09-10T08:18:00Z</time>
      </trkpt>
      <trkpt lat="44.75817" lon="-1.13841">
        <ele>0.14</ele>
        <time>2023-09-10T08:18:03Z</time>
      </trkpt>
      <trkpt lat="44.75828" lon="-1.13858">
        <ele>-1.3</ele>
        <time>2023-09-10T08:18:14Z</time>
      </trkpt>
      <trkpt lat="44.7583" lon="-1.13861">
        <ele>0.14</ele>
        <time>2023-09-10T08:18:16Z</time>
      </trkpt>
      <trkpt lat="44.75839" lon="-1.13872">
        <ele>-0.82</ele>
        <time>2023-09-10T08:18:23Z</time>
      </trkpt>
      <trkpt lat="44.75849" lon="-1.13884">
        <ele>-0.34</ele>
        <time>2023-09-10T08:18:30Z</time>
      </trkpt>
      <trkpt lat="44.75857" lon="-1.13891">
        <ele>-1.79</ele>
        <time>2023-09-10T08:18:37Z</time>
      </trkpt>
      <trkpt lat="44.75859" lon="-1.13895">
        <ele>-0.34</ele>
        <time>2023-09-10T08:18:40Z</time>
      </trkpt>
      <trkpt lat="44.75869" lon="-1.1391">
        <ele>-1.3</ele>
        <time>2023-09-10T08:18:49Z</time>
      </trkpt>
      <trkpt lat="44.75876" lon="-1.13923">
        <ele>-1.79</ele>
        <time>2023-09-10T08:18:57Z</time>
      </trkpt>
      <trkpt lat="44.75884" lon="-1.13936">
        <ele>-1.3</ele>
        <time>2023-09-10T08:19:05Z</time>
      </trkpt>
      <trkpt lat="44.75893" lon="-1.13953">
        <ele>-1.79</ele>
        <time>2023-09-10T08:19:14Z</time>
      </trkpt>
      <trkpt lat="44.759" lon="-1.13962">
        <ele>-1.79</ele>
        <time>2023-09-10T08:19:21Z</time>
      </trkpt>
      <trkpt lat="44.75906" lon="-1.13973">
        <ele>-2.75</ele>
        <time>2023-09-10T08:19:29Z</time>
      </trkpt>
      <trkpt lat="44.75916" lon="-1.13985">
        <ele>-1.3</ele>
        <time>2023-09-10T08:19:37Z</time>
      </trkpt>
      <trkpt lat="44.75922" lon="-1.13999">
        <ele>-1.79</ele>
        <time>2023-09-10T08:19:45Z</time>
      </trkpt>
      <trkpt lat="44.7593" lon="-1.1401">
        <ele>-1.79</ele>
        <time>2023-09-10T08:19:53Z</time>
      </trkpt>
      <trkpt lat="44.75935" lon="-1.1402">
        <ele>-1.79</ele>
        <time>2023-09-10T08:20:00Z</time>
      </trkpt>
      <trkpt lat="44.75936" lon="-1.14022">
        <ele>-1.79</ele>
        <time>2023-09-10T08:20:01Z</time>
      </trkpt>
      <trkpt lat="44.75945" lon="-1.14035">
        <ele>-1.79</ele>
        <time>2023-09-10T08:20:09Z</time>
      </trkpt>
      <trkpt lat="44.75951" lon="-1.14045">
        <ele>-1.79</ele>
        <time>2023-09-10T08:20:17Z</time>
      </trkpt>
      <trkpt lat="44.7596" lon="-1.14057">
        <ele>-1.3</ele>
        <time>2023-09-10T08:20:25Z</time>
      </trkpt>
      <trkpt lat="44.7597" lon="-1.14073">
        <ele>-1.79</ele>
        <time>2023-09-10T08:20:34Z</time>
      </trkpt>
      <trkpt lat="44.75976" lon="-1.14083">
        <ele>-2.27</ele>
        <time>2023-09-10T08:20:41Z</time>
      </trkpt>
      <trkpt lat="44.75986" lon="-1.14093">
        <ele>-1.3</ele>
        <time>2023-09-10T08:20:50Z</time>
      </trkpt>
      <trkpt lat="44.75993" lon="-1.1411">
        <ele>-2.27</ele>
        <time>2023-09-10T08:20:59Z</time>
      </trkpt>
      <trkpt lat="44.75998" lon="-1.1412">
        <ele>-2.75</ele>
        <time>2023-09-10T08:21:06Z</time>
      </trkpt>
      <trkpt lat="44.76008" lon="-1.14129">
        <ele>-1.79</ele>
        <time>2023-09-10T08:21:14Z</time>
      </trkpt>
      <trkpt lat="44.76017" lon="-1.14139">
        <ele>-2.75</ele>
        <time>2023-09-10T08:21:23Z</time>
      </trkpt>
      <trkpt lat="44.76025" lon="-1.14151">
        <ele>-1.79</ele>
        <time>2023-09-10T08:21:31Z</time>
      </trkpt>
      <trkpt lat="44.7603" lon="-1.14158">
        <ele>-2.75</ele>
        <time>2023-09-10T08:21:36Z</time>
      </trkpt>
      <trkpt lat="44.76036" lon="-1.14168">
        <ele>-1.79</ele>
        <time>2023-09-10T08:21:43Z</time>
      </trkpt>
      <trkpt lat="44.76043" lon="-1.14182">
        <ele>-1.79</ele>
        <time>2023-09-10T08:21:51Z</time>
      </trkpt>
      <trkpt lat="44.76045" lon="-1.14188">
        <ele>-2.75</ele>
        <time>2023-09-10T08:21:55Z</time>
      </trkpt>
      <trkpt lat="44.76054" lon="-1.142">
        <ele>-2.27</ele>
        <time>2023-09-10T08:22:04Z</time>
      </trkpt>
      <trkpt lat="44.76061" lon="-1.14214">
        <ele>-3.23</ele>
        <time>2023-09-10T08:22:12Z</time>
      </trkpt>
      <trkpt lat="44.76066" lon="-1.14224">
        <ele>-1.79</ele>
        <time>2023-09-10T08:22:19Z</time>
      </trkpt>
      <trkpt lat="44.7607" lon="-1.14232">
        <ele>-2.75</ele>
        <time>2023-09-10T08:22:24Z</time>
      </trkpt>
      <trkpt lat="44.76076" lon="-1.14241">
        <ele>-2.75</ele>
        <time>2023-09-10T08:22:31Z</time>
      </trkpt>
      <trkpt lat="44.76082" lon="-1.1425">
        <ele>-2.27</ele>
        <time>2023-09-10T08:22:38Z</time>
      </trkpt>
      <trkpt lat="44.76087" lon="-1.14259">
        <ele>-3.71</ele>
        <time>2023-09-10T08:22:46Z</time>
      </trkpt>
      <trkpt lat="44.76093" lon="-1.14272">
        <ele>-2.75</ele>
        <time>2023-09-10T08:22:54Z</time>
      </trkpt>
      <trkpt lat="44.761" lon="-1.14288">
        <ele>-2.75</ele>
        <time>2023-09-10T08:23:04Z</time>
      </trkpt>
      <trkpt lat="44.76106" lon="-1.14298">
        <ele>-3.71</ele>
        <time>2023-09-10T08:23:12Z</time>
      </trkpt>
      <trkpt lat="44.76114" lon="-1.1431">
        <ele>-3.71</ele>
        <time>2023-09-10T08:23:21Z</time>
      </trkpt>
      <trkpt lat="44.76114" lon="-1.14311">
        <ele>-4.19</ele>
        <time>2023-09-10T08:23:22Z</time>
      </trkpt>
      <trkpt lat="44.76123" lon="-1.14322">
        <ele>-3.71</ele>
        <time>2023-09-10T08:23:30Z</time>
      </trkpt>
      <trkpt lat="44.76128" lon="-1.1433">
        <ele>-3.71</ele>
        <time>2023-09-10T08:23:36Z</time>
      </trkpt>
      <trkpt lat="44.76138" lon="-1.14344">
        <ele>-2.75</ele>
        <time>2023-09-10T08:23:46Z</time>
      </trkpt>
      <trkpt lat="44.76144" lon="-1.14357">
        <ele>-4.19</ele>
        <time>2023-09-10T08:23:54Z</time>
      </trkpt>
      <trkpt lat="44.76151" lon="-1.14374">
        <ele>-2.75</ele>
        <time>2023-09-10T08:24:03Z</time>
      </trkpt>
      <trkpt lat="44.76156" lon="-1.14386">
        <ele>-4.19</ele>
        <time>2023-09-10T08:24:11Z</time>
      </trkpt>
      <trkpt lat="44.76163" lon="-1.14399">
        <ele>-2.75</ele>
        <time>2023-09-10T08:24:19Z</time>
      </trkpt>
      <trkpt lat="44.76169" lon="-1.14407">
        <ele>-3.71</ele>
        <time>2023-09-10T08:24:24Z</time>
      </trkpt>
      <trkpt lat="44.76173" lon="-1.1442">
        <ele>-2.75</ele>
        <time>2023-09-10T08:24:32Z</time>
      </trkpt>
      <trkpt lat="44.76177" lon="-1.14431">
        <ele>-3.23</ele>
        <time>2023-09-10T08:24:40Z</time>
      </trkpt>
      <trkpt lat="44.76183" lon="-1.14445">
        <ele>-2.75</ele>
        <time>2023-09-10T08:24:50Z</time>
      </trkpt>
      <trkpt lat="44.76188" lon="-1.14454">
        <ele>-3.71</ele>
        <time>2023-09-10T08:24:57Z</time>
      </trkpt>
      <trkpt lat="44.7619" lon="-1.14459">
        <ele>-3.23</ele>
        <time>2023-09-10T08:25:03Z</time>
      </trkpt>
      <trkpt lat="44.76192" lon="-1.14462">
        <ele>-2.75</ele>
        <time>2023-09-10T08:25:13Z</time>
      </trkpt>
      <trkpt lat="44.76194" lon="-1.14465">
        <ele>-3.23</ele>
        <time>2023-09-10T08:25:16Z</time>
      </trkpt>
      <trkpt lat="44.76198" lon="-1.1447">
        <ele>-2.27</ele>
        <time>2023-09-10T08:25:24Z</time>
      </trkpt>
      <trkpt lat="44.762" lon="-1.14471">
        <ele>-2.75</ele>
        <time>2023-09-10T08:25:32Z</time>
      </trkpt>
      <trkpt lat="44.76202" lon="-1.14472">
        <ele>-1.79</ele>
        <time>2023-09-10T08:25:42Z</time>
      </trkpt>
      <trkpt lat="44.76208" lon="-1.14474">
        <ele>-1.79</ele>
        <time>2023-09-10T08:25:51Z</time>
      </trkpt>
      <trkpt lat="44.7621" lon="-1.14474">
        <ele>-3.23</ele>
        <time>2023-09-10T08:26:03Z</time>
      </trkpt>
      <trkpt lat="44.76212" lon="-1.14475">
        <ele>-2.27</ele>
        <time>2023-09-10T08:26:17Z</time>
      </trkpt>
      <trkpt lat="44.76213" lon="-1.14475">
        <ele>-2.75</ele>
        <time>2023-09-10T08:26:28Z</time>
      </trkpt>
      <trkpt lat="44.76213" lon="-1.14476">
        <ele>-1.79</ele>
        <time>2023-09-10T08:26:40Z</time>
      </trkpt>
      <trkpt lat="44.76213" lon="-1.14476">
        <ele>-2.27</ele>
        <time>2023-09-10T08:26:57Z</time>
      </trkpt>
      <trkpt lat="44.76213" lon="-1.14476">
        <ele>-2.27</ele>
        <time>2023-09-10T08:27:16Z</time>
      </trkpt>
      <trkpt lat="44.76213" lon="-1.14477">
        <ele>-2.27</ele>
        <time>2023-09-10T08:27:33Z</time>
      </trkpt>
      <trkpt lat="44.76213" lon="-1.14476">
        <ele>-2.27</ele>
        <time>2023-09-10T08:27:47Z</time>
      </trkpt>
      <trkpt lat="44.76213" lon="-1.14476">
        <ele>-1.79</ele>
        <time>2023-09-10T08:28:04Z</time>
      </trkpt>
      <trkpt lat="44.76213" lon="-1.14477">
        <ele>-1.79</ele>
        <time>2023-09-10T08:28:13Z</time>
      </trkpt>
      <trkpt lat="44.76213" lon="-1.14477">
        <ele>-2.27</ele>
        <time>2023-09-10T08:28:24Z</time>
      </trkpt>
      <trkpt lat="44.76213" lon="-1.14477">
        <ele>-2.27</ele>
        <time>2023-09-10T08:28:36Z</time>
      </trkpt>
      <trkpt lat="44.76213" lon="-1.14477">
        <ele>-2.75</ele>
        <time>2023-09-10T08:28:49Z</time>
      </trkpt>
      <trkpt lat="44.76213" lon="-1.14478">
        <ele>-2.75</ele>
        <time>2023-09-10T08:28:57Z</time>
      </trkpt>
      <trkpt lat="44.76213" lon="-1.14478">
        <ele>-3.71</ele>
        <time>2023-09-10T08:29:13Z</time>
      </trkpt>
      <trkpt lat="44.76213" lon="-1.14479">
        <ele>-1.79</ele>
        <time>2023-09-10T08:29:16Z</time>
      </trkpt>
      <trkpt lat="44.76211" lon="-1.14485">
        <ele>-1.79</ele>
        <time>2023-09-10T08:29:20Z</time>
      </trkpt>
      <trkpt lat="44.76202" lon="-1.14513">
        <ele>-2.27</ele>
        <time>2023-09-10T08:29:34Z</time>
      </trkpt>
      <trkpt lat="44.76193" lon="-1.14536">
        <ele>-3.71</ele>
        <time>2023-09-10T08:29:48Z</time>
      </trkpt>
      <trkpt lat="44.76186" lon="-1.14553">
        <ele>-3.71</ele>
        <time>2023-09-10T08:29:57Z</time>
      </trkpt>
      <trkpt lat="44.76177" lon="-1.14576">
        <ele>-3.23</ele>
        <time>2023-09-10T08:30:08Z</time>
      </trkpt>
      <trkpt lat="44.76168" lon="-1.14602">
        <ele>-4.19</ele>
        <time>2023-09-10T08:30:19Z</time>
      </trkpt>
      <trkpt lat="44.76159" lon="-1.1462">
        <ele>-4.19</ele>
        <time>2023-09-10T08:30:29Z</time>
      </trkpt>
      <trkpt lat="44.76155" lon="-1.14628">
        <ele>-2.75</ele>
        <time>2023-09-10T08:30:33Z</time>
      </trkpt>
      <trkpt lat="44.76151" lon="-1.14648">
        <ele>-3.71</ele>
        <time>2023-09-10T08:30:44Z</time>
      </trkpt>
      <trkpt lat="44.76152" lon="-1.14657">
        <ele>-4.19</ele>
        <time>2023-09-10T08:30:48Z</time>
      </trkpt>
      <trkpt lat="44.76154" lon="-1.14661">
        <ele>-3.23</ele>
        <time>2023-09-10T08:30:50Z</time>
      </trkpt>
      <trkpt lat="44.76157" lon="-1.14665">
        <ele>-2.75</ele>
        <time>2023-09-10T08:30:53Z</time>
      </trkpt>
      <trkpt lat="44.76165" lon="-1.14682">
        <ele>-4.19</ele>
        <time>2023-09-10T08:31:03Z</time>
      </trkpt>
      <trkpt lat="44.76173" lon="-1.14696">
        <ele>-2.75</ele>
        <time>2023-09-10T08:31:12Z</time>
      </trkpt>
      <trkpt lat="44.76184" lon="-1.14715">
        <ele>-3.23</ele>
        <time>2023-09-10T08:31:24Z</time>
      </trkpt>
      <trkpt lat="44.76195" lon="-1.14729">
        <ele>-3.71</ele>
        <time>2023-09-10T08:31:34Z</time>
      </trkpt>
      <trkpt lat="44.76203" lon="-1.1474">
        <ele>-3.23</ele>
        <time>2023-09-10T08:31:41Z</time>
      </trkpt>
      <trkpt lat="44.76208" lon="-1.14748">
        <ele>-3.71</ele>
        <time>2023-09-10T08:31:47Z</time>
      </trkpt>
      <trkpt lat="44.76214" lon="-1.14757">
        <ele>-3.71</ele>
        <time>2023-09-10T08:31:53Z</time>
      </trkpt>
      <trkpt lat="44.76222" lon="-1.14771">
        <ele>-1.79</ele>
        <time>2023-09-10T08:32:01Z</time>
      </trkpt>
      <trkpt lat="44.7623" lon="-1.14783">
        <ele>-3.23</ele>
        <time>2023-09-10T08:32:09Z</time>
      </trkpt>
      <trkpt lat="44.76232" lon="-1.14789">
        <ele>-2.27</ele>
        <time>2023-09-10T08:32:13Z</time>
      </trkpt>
      <trkpt lat="44.7624" lon="-1.14801">
        <ele>-1.79</ele>
        <time>2023-09-10T08:32:21Z</time>
      </trkpt>
      <trkpt lat="44.76248" lon="-1.14813">
        <ele>-2.27</ele>
        <time>2023-09-10T08:32:30Z</time>
      </trkpt>
      <trkpt lat="44.76257" lon="-1.14827">
        <ele>-2.27</ele>
        <time>2023-09-10T08:32:40Z</time>
      </trkpt>
      <trkpt lat="44.76266" lon="-1.14841">
        <ele>-2.75</ele>
        <time>2023-09-10T08:32:48Z</time>
      </trkpt>
      <trkpt lat="44.76272" lon="-1.14847">
        <ele>-2.75</ele>
        <time>2023-09-10T08:32:54Z</time>
      </trkpt>
      <trkpt lat="44.76275" lon="-1.14849">
        <ele>-1.79</ele>
        <time>2023-09-10T08:32:57Z</time>
      </trkpt>
      <trkpt lat="44.76289" lon="-1.14852">
        <ele>-2.27</ele>
        <time>2023-09-10T08:33:06Z</time>
      </trkpt>
      <trkpt lat="44.76294" lon="-1.14848">
        <ele>-2.27</ele>
        <time>2023-09-10T08:33:10Z</time>
      </trkpt>
      <trkpt lat="44.76301" lon="-1.14835">
        <ele>-1.3</ele>
        <time>2023-09-10T08:33:18Z</time>
      </trkpt>
      <trkpt lat="44.76308" lon="-1.14823">
        <ele>-3.23</ele>
        <time>2023-09-10T08:33:26Z</time>
      </trkpt>
      <trkpt lat="44.76312" lon="-1.14814">
        <ele>-3.23</ele>
        <time>2023-09-10T08:33:32Z</time>
      </trkpt>
      <trkpt lat="44.76318" lon="-1.14812">
        <ele>-2.27</ele>
        <time>2023-09-10T08:33:36Z</time>
      </trkpt>
      <trkpt lat="44.76329" lon="-1.1482">
        <ele>-2.75</ele>
        <time>2023-09-10T08:33:45Z</time>
      </trkpt>
      <trkpt lat="44.76341" lon="-1.14835">
        <ele>-3.23</ele>
        <time>2023-09-10T08:33:55Z</time>
      </trkpt>
      <trkpt lat="44.76352" lon="-1.1485">
        <ele>-3.23</ele>
        <time>2023-09-10T08:34:06Z</time>
      </trkpt>
      <trkpt lat="44.7636" lon="-1.14863">
        <ele>-2.75</ele>
        <time>2023-09-10T08:34:14Z</time>
      </trkpt>
      <trkpt lat="44.76373" lon="-1.14874">
        <ele>-3.71</ele>
        <time>2023-09-10T08:34:24Z</time>
      </trkpt>
      <trkpt lat="44.76382" lon="-1.14882">
        <ele>-3.23</ele>
        <time>2023-09-10T08:34:31Z</time>
      </trkpt>
      <trkpt lat="44.76392" lon="-1.14892">
        <ele>-4.67</ele>
        <time>2023-09-10T08:34:39Z</time>
      </trkpt>
      <trkpt lat="44.76402" lon="-1.14902">
        <ele>-3.71</ele>
        <time>2023-09-10T08:34:48Z</time>
      </trkpt>
      <trkpt lat="44.76416" lon="-1.14914">
        <ele>-3.71</ele>
        <time>2023-09-10T08:34:57Z</time>
      </trkpt>
      <trkpt lat="44.76424" lon="-1.14924">
        <ele>-4.19</ele>
        <time>2023-09-10T08:35:05Z</time>
      </trkpt>
      <trkpt lat="44.76545" lon="-1.15009">
        <ele>9.27</ele>
        <time>2023-09-10T08:36:55Z</time>
      </trkpt>
      <trkpt lat="44.76546" lon="-1.15008">
        <ele>7.83</ele>
        <time>2023-09-10T08:36:56Z</time>
      </trkpt>
      <trkpt lat="44.76558" lon="-1.15001">
        <ele>9.27</ele>
        <time>2023-09-10T08:37:05Z</time>
      </trkpt>
      <trkpt lat="44.76571" lon="-1.14998">
        <ele>9.27</ele>
        <time>2023-09-10T08:37:14Z</time>
      </trkpt>
      <trkpt lat="44.76575" lon="-1.14999">
        <ele>5.42</ele>
        <time>2023-09-10T08:37:17Z</time>
      </trkpt>
      <trkpt lat="44.76578" lon="-1.14998">
        <ele>8.79</ele>
        <time>2023-09-10T08:37:19Z</time>
      </trkpt>
      <trkpt lat="44.76587" lon="-1.14997">
        <ele>7.35</ele>
        <time>2023-09-10T08:37:26Z</time>
      </trkpt>
      <trkpt lat="44.7659" lon="-1.14996">
        <ele>6.87</ele>
        <time>2023-09-10T08:37:29Z</time>
      </trkpt>
      <trkpt lat="44.76589" lon="-1.14995">
        <ele>7.35</ele>
        <time>2023-09-10T08:37:32Z</time>
      </trkpt>
      <trkpt lat="44.766" lon="-1.14994">
        <ele>5.91</ele>
        <time>2023-09-10T08:37:42Z</time>
      </trkpt>
      <trkpt lat="44.76608" lon="-1.14993">
        <ele>5.91</ele>
        <time>2023-09-10T08:37:47Z</time>
      </trkpt>
      <trkpt lat="44.76625" lon="-1.14994">
        <ele>6.39</ele>
        <time>2023-09-10T08:37:58Z</time>
      </trkpt>
      <trkpt lat="44.76644" lon="-1.1499">
        <ele>5.91</ele>
        <time>2023-09-10T08:38:09Z</time>
      </trkpt>
      <trkpt lat="44.76658" lon="-1.14988">
        <ele>5.91</ele>
        <time>2023-09-10T08:38:19Z</time>
      </trkpt>
      <trkpt lat="44.76672" lon="-1.14991">
        <ele>6.87</ele>
        <time>2023-09-10T08:38:29Z</time>
      </trkpt>
      <trkpt lat="44.76678" lon="-1.14995">
        <ele>5.91</ele>
        <time>2023-09-10T08:38:37Z</time>
      </trkpt>
      <trkpt lat="44.76704" lon="-1.15029">
        <ele>5.42</ele>
        <time>2023-09-10T08:40:19Z</time>
      </trkpt>
      <trkpt lat="44.76705" lon="-1.15032">
        <ele>4.46</ele>
        <time>2023-09-10T08:40:22Z</time>
      </trkpt>
      <trkpt lat="44.76699" lon="-1.15018">
        <ele>5.42</ele>
        <time>2023-09-10T08:40:28Z</time>
      </trkpt>
      <trkpt lat="44.76698" lon="-1.15011">
        <ele>4.46</ele>
        <time>2023-09-10T08:40:43Z</time>
      </trkpt>
      <trkpt lat="44.76699" lon="-1.15011">
        <ele>3.98</ele>
        <time>2023-09-10T08:40:54Z</time>
      </trkpt>
      <trkpt lat="44.76698" lon="-1.15009">
        <ele>3.5</ele>
        <time>2023-09-10T08:41:06Z</time>
      </trkpt>
      <trkpt lat="44.76699" lon="-1.1501">
        <ele>3.02</ele>
        <time>2023-09-10T08:41:12Z</time>
      </trkpt>
      <trkpt lat="44.76697" lon="-1.15009">
        <ele>2.54</ele>
        <time>2023-09-10T08:41:25Z</time>
      </trkpt>
      <trkpt lat="44.76698" lon="-1.15011">
        <ele>2.06</ele>
        <time>2023-09-10T08:41:38Z</time>
      </trkpt>
      <trkpt lat="44.76697" lon="-1.15006">
        <ele>2.06</ele>
        <time>2023-09-10T08:41:54Z</time>
      </trkpt>
      <trkpt lat="44.76697" lon="-1.15007">
        <ele>1.58</ele>
        <time>2023-09-10T08:42:08Z</time>
      </trkpt>
      <trkpt lat="44.76696" lon="-1.15009">
        <ele>2.06</ele>
        <time>2023-09-10T08:42:21Z</time>
      </trkpt>
      <trkpt lat="44.76696" lon="-1.15009">
        <ele>1.58</ele>
        <time>2023-09-10T08:42:35Z</time>
      </trkpt>
      <trkpt lat="44.76696" lon="-1.15007">
        <ele>2.06</ele>
        <time>2023-09-10T08:42:51Z</time>
      </trkpt>
      <trkpt lat="44.76696" lon="-1.15008">
        <ele>2.06</ele>
        <time>2023-09-10T08:43:06Z</time>
      </trkpt>
      <trkpt lat="44.76697" lon="-1.15008">
        <ele>2.06</ele>
        <time>2023-09-10T08:43:22Z</time>
      </trkpt>
      <trkpt lat="44.76697" lon="-1.15009">
        <ele>2.54</ele>
        <time>2023-09-10T08:43:39Z</time>
      </trkpt>
      <trkpt lat="44.76697" lon="-1.15009">
        <ele>2.54</ele>
        <time>2023-09-10T08:43:56Z</time>
      </trkpt>
      <trkpt lat="44.76697" lon="-1.15009">
        <ele>2.54</ele>
        <time>2023-09-10T08:44:12Z</time>
      </trkpt>
      <trkpt lat="44.76697" lon="-1.15009">
        <ele>3.02</ele>
        <time>2023-09-10T08:44:28Z</time>
      </trkpt>
      <trkpt lat="44.76697" lon="-1.15009">
        <ele>3.02</ele>
        <time>2023-09-10T08:44:43Z</time>
      </trkpt>
      <trkpt lat="44.76697" lon="-1.1501">
        <ele>3.5</ele>
        <time>2023-09-10T08:45:01Z</time>
      </trkpt>
      <trkpt lat="44.76697" lon="-1.1501">
        <ele>2.54</ele>
        <time>2023-09-10T08:45:18Z</time>
      </trkpt>
      <trkpt lat="44.76697" lon="-1.1501">
        <ele>2.54</ele>
        <time>2023-09-10T08:45:35Z</time>
      </trkpt>
      <trkpt lat="44.76697" lon="-1.1501">
        <ele>2.54</ele>
        <time>2023-09-10T08:45:52Z</time>
      </trkpt>
      <trkpt lat="44.76697" lon="-1.1501">
        <ele>2.06</ele>
        <time>2023-09-10T08:46:08Z</time>
      </trkpt>
      <trkpt lat="44.76698" lon="-1.15013">
        <ele>2.54</ele>
        <time>2023-09-10T08:46:18Z</time>
      </trkpt>
      <trkpt lat="44.76697" lon="-1.15017">
        <ele>2.06</ele>
        <time>2023-09-10T08:46:28Z</time>
      </trkpt>
      <trkpt lat="44.76696" lon="-1.15018">
        <ele>1.58</ele>
        <time>2023-09-10T08:46:43Z</time>
      </trkpt>
      <trkpt lat="44.76696" lon="-1.15019">
        <ele>1.58</ele>
        <time>2023-09-10T08:46:56Z</time>
      </trkpt>
      <trkpt lat="44.76696" lon="-1.15019">
        <ele>1.58</ele>
        <time>2023-09-10T08:47:10Z</time>
      </trkpt>
      <trkpt lat="44.76696" lon="-1.15019">
        <ele>1.58</ele>
        <time>2023-09-10T08:47:27Z</time>
      </trkpt>
      <trkpt lat="44.76696" lon="-1.15019">
        <ele>1.58</ele>
        <time>2023-09-10T08:47:40Z</time>
      </trkpt>
      <trkpt lat="44.76697" lon="-1.15019">
        <ele>1.58</ele>
        <time>2023-09-10T08:47:54Z</time>
      </trkpt>
      <trkpt lat="44.76694" lon="-1.15022">
        <ele>0.62</ele>
        <time>2023-09-10T08:48:07Z</time>
      </trkpt>
      <trkpt lat="44.76694" lon="-1.15023">
        <ele>1.1</ele>
        <time>2023-09-10T08:48:20Z</time>
      </trkpt>
      <trkpt lat="44.76695" lon="-1.15022">
        <ele>1.1</ele>
        <time>2023-09-10T08:48:32Z</time>
      </trkpt>
      <trkpt lat="44.76693" lon="-1.15022">
        <ele>1.1</ele>
        <time>2023-09-10T08:48:41Z</time>
      </trkpt>
      <trkpt lat="44.76693" lon="-1.15022">
        <ele>1.1</ele>
        <time>2023-09-10T08:48:55Z</time>
      </trkpt>
      <trkpt lat="44.76694" lon="-1.15021">
        <ele>1.1</ele>
        <time>2023-09-10T08:49:15Z</time>
      </trkpt>
      <trkpt lat="44.76694" lon="-1.15021">
        <ele>1.1</ele>
        <time>2023-09-10T08:49:30Z</time>
      </trkpt>
      <trkpt lat="44.76694" lon="-1.15021">
        <ele>1.58</ele>
        <time>2023-09-10T08:49:42Z</time>
      </trkpt>
      <trkpt lat="44.76693" lon="-1.15022">
        <ele>1.58</ele>
        <time>2023-09-10T08:49:54Z</time>
      </trkpt>
      <trkpt lat="44.76692" lon="-1.15029">
        <ele>1.58</ele>
        <time>2023-09-10T08:50:02Z</time>
      </trkpt>
      <trkpt lat="44.76691" lon="-1.15038">
        <ele>2.06</ele>
        <time>2023-09-10T08:50:09Z</time>
      </trkpt>
      <trkpt lat="44.76693" lon="-1.15054">
        <ele>2.54</ele>
        <time>2023-09-10T08:50:19Z</time>
      </trkpt>
      <trkpt lat="44.76694" lon="-1.15056">
        <ele>1.58</ele>
        <time>2023-09-10T08:50:21Z</time>
      </trkpt>
      <trkpt lat="44.76699" lon="-1.15062">
        <ele>1.58</ele>
        <time>2023-09-10T08:50:26Z</time>
      </trkpt>
      <trkpt lat="44.76711" lon="-1.15072">
        <ele>1.58</ele>
        <time>2023-09-10T08:50:36Z</time>
      </trkpt>
      <trkpt lat="44.76724" lon="-1.15082">
        <ele>2.06</ele>
        <time>2023-09-10T08:50:45Z</time>
      </trkpt>
      <trkpt lat="44.7673" lon="-1.15084">
        <ele>1.58</ele>
        <time>2023-09-10T08:50:53Z</time>
      </trkpt>
      <trkpt lat="44.7674" lon="-1.15094">
        <ele>2.06</ele>
        <time>2023-09-10T08:51:03Z</time>
      </trkpt>
      <trkpt lat="44.76752" lon="-1.15107">
        <ele>1.58</ele>
        <time>2023-09-10T08:51:15Z</time>
      </trkpt>
      <trkpt lat="44.76765" lon="-1.15122">
        <ele>1.58</ele>
        <time>2023-09-10T08:51:26Z</time>
      </trkpt>
      <trkpt lat="44.76774" lon="-1.15132">
        <ele>1.58</ele>
        <time>2023-09-10T08:51:34Z</time>
      </trkpt>
      <trkpt lat="44.76783" lon="-1.15143">
        <ele>1.58</ele>
        <time>2023-09-10T08:51:43Z</time>
      </trkpt>
      <trkpt lat="44.76791" lon="-1.15155">
        <ele>1.1</ele>
        <time>2023-09-10T08:51:52Z</time>
      </trkpt>
      <trkpt lat="44.76802" lon="-1.1517">
        <ele>1.58</ele>
        <time>2023-09-10T08:52:01Z</time>
      </trkpt>
      <trkpt lat="44.76807" lon="-1.15184">
        <ele>1.58</ele>
        <time>2023-09-10T08:52:09Z</time>
      </trkpt>
      <trkpt lat="44.76818" lon="-1.15199">
        <ele>0.62</ele>
        <time>2023-09-10T08:52:18Z</time>
      </trkpt>
      <trkpt lat="44.7682" lon="-1.15202">
        <ele>1.1</ele>
        <time>2023-09-10T08:52:20Z</time>
      </trkpt>
      <trkpt lat="44.76823" lon="-1.15208">
        <ele>1.1</ele>
        <time>2023-09-10T08:52:23Z</time>
      </trkpt>
      <trkpt lat="44.76831" lon="-1.1522">
        <ele>1.1</ele>
        <time>2023-09-10T08:52:31Z</time>
      </trkpt>
      <trkpt lat="44.76838" lon="-1.15235">
        <ele>0.62</ele>
        <time>2023-09-10T08:52:40Z</time>
      </trkpt>
      <trkpt lat="44.76846" lon="-1.15249">
        <ele>0.14</ele>
        <time>2023-09-10T08:52:50Z</time>
      </trkpt>
      <trkpt lat="44.76856" lon="-1.15268">
        <ele>1.58</ele>
        <time>2023-09-10T08:53:01Z</time>
      </trkpt>
      <trkpt lat="44.76865" lon="-1.15282">
        <ele>1.58</ele>
        <time>2023-09-10T08:53:11Z</time>
      </trkpt>
      <trkpt lat="44.76873" lon="-1.15297">
        <ele>2.06</ele>
        <time>2023-09-10T08:53:20Z</time>
      </trkpt>
      <trkpt lat="44.76875" lon="-1.153">
        <ele>1.58</ele>
        <time>2023-09-10T08:53:22Z</time>
      </trkpt>
      <trkpt lat="44.76891" lon="-1.15314">
        <ele>1.58</ele>
        <time>2023-09-10T08:53:34Z</time>
      </trkpt>
      <trkpt lat="44.76901" lon="-1.15323">
        <ele>1.58</ele>
        <time>2023-09-10T08:53:42Z</time>
      </trkpt>
      <trkpt lat="44.76904" lon="-1.15326">
        <ele>1.58</ele>
        <time>2023-09-10T08:53:44Z</time>
      </trkpt>
      <trkpt lat="44.76918" lon="-1.15336">
        <ele>2.06</ele>
        <time>2023-09-10T08:53:55Z</time>
      </trkpt>
      <trkpt lat="44.76925" lon="-1.15352">
        <ele>2.54</ele>
        <time>2023-09-10T08:54:04Z</time>
      </trkpt>
      <trkpt lat="44.76928" lon="-1.1536">
        <ele>2.06</ele>
        <time>2023-09-10T08:54:08Z</time>
      </trkpt>
      <trkpt lat="44.76934" lon="-1.1538">
        <ele>2.06</ele>
        <time>2023-09-10T08:54:17Z</time>
      </trkpt>
      <trkpt lat="44.76939" lon="-1.1539">
        <ele>1.58</ele>
        <time>2023-09-10T08:54:24Z</time>
      </trkpt>
      <trkpt lat="44.76941" lon="-1.15393">
        <ele>2.06</ele>
        <time>2023-09-10T08:54:32Z</time>
      </trkpt>
      <trkpt lat="44.76942" lon="-1.15394">
        <ele>2.06</ele>
        <time>2023-09-10T08:54:45Z</time>
      </trkpt>
      <trkpt lat="44.76942" lon="-1.15394">
        <ele>1.58</ele>
        <time>2023-09-10T08:54:58Z</time>
      </trkpt>
      <trkpt lat="44.76941" lon="-1.15391">
        <ele>1.58</ele>
        <time>2023-09-10T08:55:08Z</time>
      </trkpt>
      <trkpt lat="44.76946" lon="-1.15392">
        <ele>1.58</ele>
        <time>2023-09-10T08:55:19Z</time>
      </trkpt>
      <trkpt lat="44.76947" lon="-1.15389">
        <ele>1.1</ele>
        <time>2023-09-10T08:55:30Z</time>
      </trkpt>
      <trkpt lat="44.76944" lon="-1.15389">
        <ele>2.06</ele>
        <time>2023-09-10T08:55:44Z</time>
      </trkpt>
      <trkpt lat="44.76944" lon="-1.15388">
        <ele>2.06</ele>
        <time>2023-09-10T08:56:01Z</time>
      </trkpt>
      <trkpt lat="44.76943" lon="-1.15388">
        <ele>1.58</ele>
        <time>2023-09-10T08:56:17Z</time>
      </trkpt>
      <trkpt lat="44.76943" lon="-1.15391">
        <ele>1.58</ele>
        <time>2023-09-10T08:56:30Z</time>
      </trkpt>
      <trkpt lat="44.76944" lon="-1.15391">
        <ele>2.06</ele>
        <time>2023-09-10T08:56:42Z</time>
      </trkpt>
      <trkpt lat="44.76943" lon="-1.1539">
        <ele>1.58</ele>
        <time>2023-09-10T08:56:52Z</time>
      </trkpt>
      <trkpt lat="44.76943" lon="-1.15389">
        <ele>1.58</ele>
        <time>2023-09-10T08:57:06Z</time>
      </trkpt>
      <trkpt lat="44.76942" lon="-1.15388">
        <ele>1.58</ele>
        <time>2023-09-10T08:57:18Z</time>
      </trkpt>
      <trkpt lat="44.76942" lon="-1.15388">
        <ele>2.06</ele>
        <time>2023-09-10T08:57:32Z</time>
      </trkpt>
      <trkpt lat="44.76941" lon="-1.15383">
        <ele>1.58</ele>
        <time>2023-09-10T08:57:42Z</time>
      </trkpt>
      <trkpt lat="44.76942" lon="-1.15381">
        <ele>1.58</ele>
        <time>2023-09-10T08:57:55Z</time>
      </trkpt>
      <trkpt lat="44.76942" lon="-1.15383">
        <ele>1.58</ele>
        <time>2023-09-10T08:58:09Z</time>
      </trkpt>
      <trkpt lat="44.76942" lon="-1.15386">
        <ele>1.58</ele>
        <time>2023-09-10T08:58:29Z</time>
      </trkpt>
      <trkpt lat="44.76942" lon="-1.15388">
        <ele>1.1</ele>
        <time>2023-09-10T08:58:45Z</time>
      </trkpt>
      <trkpt lat="44.76943" lon="-1.15393">
        <ele>1.1</ele>
        <time>2023-09-10T08:58:55Z</time>
      </trkpt>
      <trkpt lat="44.76946" lon="-1.154">
        <ele>1.1</ele>
        <time>2023-09-10T08:59:04Z</time>
      </trkpt>
      <trkpt lat="44.76954" lon="-1.15412">
        <ele>2.06</ele>
        <time>2023-09-10T08:59:14Z</time>
      </trkpt>
      <trkpt lat="44.76961" lon="-1.15421">
        <ele>1.58</ele>
        <time>2023-09-10T08:59:22Z</time>
      </trkpt>
      <trkpt lat="44.76973" lon="-1.15443">
        <ele>1.1</ele>
        <time>2023-09-10T08:59:36Z</time>
      </trkpt>
      <trkpt lat="44.76982" lon="-1.15454">
        <ele>1.58</ele>
        <time>2023-09-10T08:59:45Z</time>
      </trkpt>
      <trkpt lat="44.76987" lon="-1.15464">
        <ele>1.1</ele>
        <time>2023-09-10T08:59:51Z</time>
      </trkpt>
      <trkpt lat="44.76996" lon="-1.15479">
        <ele>0.62</ele>
        <time>2023-09-10T09:00:01Z</time>
      </trkpt>
      <trkpt lat="44.77004" lon="-1.1549">
        <ele>1.1</ele>
        <time>2023-09-10T09:00:09Z</time>
      </trkpt>
      <trkpt lat="44.77014" lon="-1.15504">
        <ele>0.62</ele>
        <time>2023-09-10T09:00:19Z</time>
      </trkpt>
      <trkpt lat="44.7702" lon="-1.15511">
        <ele>0.62</ele>
        <time>2023-09-10T09:00:25Z</time>
      </trkpt>
      <trkpt lat="44.7703" lon="-1.15527">
        <ele>1.58</ele>
        <time>2023-09-10T09:00:34Z</time>
      </trkpt>
      <trkpt lat="44.77039" lon="-1.15541">
        <ele>1.58</ele>
        <time>2023-09-10T09:00:44Z</time>
      </trkpt>
      <trkpt lat="44.77045" lon="-1.15561">
        <ele>1.1</ele>
        <time>2023-09-10T09:00:55Z</time>
      </trkpt>
      <trkpt lat="44.77045" lon="-1.15582">
        <ele>1.58</ele>
        <time>2023-09-10T09:01:08Z</time>
      </trkpt>
      <trkpt lat="44.77036" lon="-1.15607">
        <ele>1.1</ele>
        <time>2023-09-10T09:01:21Z</time>
      </trkpt>
      <trkpt lat="44.77032" lon="-1.15628">
        <ele>0.62</ele>
        <time>2023-09-10T09:01:32Z</time>
      </trkpt>
      <trkpt lat="44.77032" lon="-1.15638">
        <ele>0.62</ele>
        <time>2023-09-10T09:01:37Z</time>
      </trkpt>
      <trkpt lat="44.7703" lon="-1.15658">
        <ele>1.1</ele>
        <time>2023-09-10T09:01:47Z</time>
      </trkpt>
      <trkpt lat="44.77025" lon="-1.15678">
        <ele>0.14</ele>
        <time>2023-09-10T09:01:56Z</time>
      </trkpt>
      <trkpt lat="44.77029" lon="-1.15691">
        <ele>0.62</ele>
        <time>2023-09-10T09:02:05Z</time>
      </trkpt>
      <trkpt lat="44.77032" lon="-1.15696">
        <ele>1.1</ele>
        <time>2023-09-10T09:02:08Z</time>
      </trkpt>
      <trkpt lat="44.77039" lon="-1.15708">
        <ele>0.14</ele>
        <time>2023-09-10T09:02:19Z</time>
      </trkpt>
      <trkpt lat="44.77047" lon="-1.15719">
        <ele>0.62</ele>
        <time>2023-09-10T09:02:29Z</time>
      </trkpt>
      <trkpt lat="44.77054" lon="-1.15725">
        <ele>0.14</ele>
        <time>2023-09-10T09:02:35Z</time>
      </trkpt>
      <trkpt lat="44.77062" lon="-1.15737">
        <ele>-0.34</ele>
        <time>2023-09-10T09:02:43Z</time>
      </trkpt>
      <trkpt lat="44.77072" lon="-1.15753">
        <ele>0.62</ele>
        <time>2023-09-10T09:02:53Z</time>
      </trkpt>
      <trkpt lat="44.77083" lon="-1.15765">
        <ele>-0.34</ele>
        <time>2023-09-10T09:03:02Z</time>
      </trkpt>
      <trkpt lat="44.7709" lon="-1.15769">
        <ele>0.62</ele>
        <time>2023-09-10T09:03:08Z</time>
      </trkpt>
      <trkpt lat="44.771" lon="-1.15779">
        <ele>0.14</ele>
        <time>2023-09-10T09:03:18Z</time>
      </trkpt>
      <trkpt lat="44.77103" lon="-1.15781">
        <ele>0.62</ele>
        <time>2023-09-10T09:03:20Z</time>
      </trkpt>
      <trkpt lat="44.77113" lon="-1.15793">
        <ele>-0.34</ele>
        <time>2023-09-10T09:03:29Z</time>
      </trkpt>
      <trkpt lat="44.77115" lon="-1.15795">
        <ele>-0.34</ele>
        <time>2023-09-10T09:03:31Z</time>
      </trkpt>
      <trkpt lat="44.77123" lon="-1.15806">
        <ele>-0.82</ele>
        <time>2023-09-10T09:03:39Z</time>
      </trkpt>
      <trkpt lat="44.7713" lon="-1.15818">
        <ele>-0.82</ele>
        <time>2023-09-10T09:03:45Z</time>
      </trkpt>
      <trkpt lat="44.77139" lon="-1.15829">
        <ele>-0.34</ele>
        <time>2023-09-10T09:03:53Z</time>
      </trkpt>
      <trkpt lat="44.7715" lon="-1.15842">
        <ele>-1.3</ele>
        <time>2023-09-10T09:04:02Z</time>
      </trkpt>
      <trkpt lat="44.77156" lon="-1.15853">
        <ele>-0.82</ele>
        <time>2023-09-10T09:04:09Z</time>
      </trkpt>
      <trkpt lat="44.77157" lon="-1.15854">
        <ele>-0.82</ele>
        <time>2023-09-10T09:04:10Z</time>
      </trkpt>
      <trkpt lat="44.77162" lon="-1.1586">
        <ele>-1.3</ele>
        <time>2023-09-10T09:04:14Z</time>
      </trkpt>
      <trkpt lat="44.77166" lon="-1.15865">
        <ele>-0.82</ele>
        <time>2023-09-10T09:04:17Z</time>
      </trkpt>
      <trkpt lat="44.77174" lon="-1.15878">
        <ele>-1.79</ele>
        <time>2023-09-10T09:04:24Z</time>
      </trkpt>
      <trkpt lat="44.77177" lon="-1.15885">
        <ele>-1.79</ele>
        <time>2023-09-10T09:04:29Z</time>
      </trkpt>
      <trkpt lat="44.77189" lon="-1.15897">
        <ele>-0.82</ele>
        <time>2023-09-10T09:04:40Z</time>
      </trkpt>
      <trkpt lat="44.77199" lon="-1.15901">
        <ele>-1.3</ele>
        <time>2023-09-10T09:04:48Z</time>
      </trkpt>
      <trkpt lat="44.77211" lon="-1.15913">
        <ele>-1.3</ele>
        <time>2023-09-10T09:04:58Z</time>
      </trkpt>
      <trkpt lat="44.77222" lon="-1.15921">
        <ele>-1.79</ele>
        <time>2023-09-10T09:05:07Z</time>
      </trkpt>
      <trkpt lat="44.77232" lon="-1.15924">
        <ele>-1.79</ele>
        <time>2023-09-10T09:05:16Z</time>
      </trkpt>
      <trkpt lat="44.77242" lon="-1.15932">
        <ele>-1.3</ele>
        <time>2023-09-10T09:05:24Z</time>
      </trkpt>
      <trkpt lat="44.77251" lon="-1.15937">
        <ele>-1.79</ele>
        <time>2023-09-10T09:05:33Z</time>
      </trkpt>
      <trkpt lat="44.77259" lon="-1.15945">
        <ele>-1.79</ele>
        <time>2023-09-10T09:05:42Z</time>
      </trkpt>
      <trkpt lat="44.77268" lon="-1.15954">
        <ele>-2.75</ele>
        <time>2023-09-10T09:05:51Z</time>
      </trkpt>
      <trkpt lat="44.77284" lon="-1.15962">
        <ele>-1.79</ele>
        <time>2023-09-10T09:06:02Z</time>
      </trkpt>
      <trkpt lat="44.77297" lon="-1.15964">
        <ele>-2.27</ele>
        <time>2023-09-10T09:06:11Z</time>
      </trkpt>
      <trkpt lat="44.77308" lon="-1.1597">
        <ele>-2.27</ele>
        <time>2023-09-10T09:06:21Z</time>
      </trkpt>
      <trkpt lat="44.77313" lon="-1.15974">
        <ele>-2.27</ele>
        <time>2023-09-10T09:06:26Z</time>
      </trkpt>
      <trkpt lat="44.77314" lon="-1.15985">
        <ele>-1.79</ele>
        <time>2023-09-10T09:06:31Z</time>
      </trkpt>
      <trkpt lat="44.77311" lon="-1.16005">
        <ele>-0.82</ele>
        <time>2023-09-10T09:06:40Z</time>
      </trkpt>
      <trkpt lat="44.7731" lon="-1.16011">
        <ele>-0.34</ele>
        <time>2023-09-10T09:06:45Z</time>
      </trkpt>
      <trkpt lat="44.77309" lon="-1.16014">
        <ele>-1.3</ele>
        <time>2023-09-10T09:06:47Z</time>
      </trkpt>
      <trkpt lat="44.77306" lon="-1.16027">
        <ele>-0.34</ele>
        <time>2023-09-10T09:06:56Z</time>
      </trkpt>
      <trkpt lat="44.77305" lon="-1.16029">
        <ele>0.14</ele>
        <time>2023-09-10T09:07:04Z</time>
      </trkpt>
      <trkpt lat="44.77305" lon="-1.16029">
        <ele>0.14</ele>
        <time>2023-09-10T09:07:18Z</time>
      </trkpt>
      <trkpt lat="44.77304" lon="-1.16034">
        <ele>-0.34</ele>
        <time>2023-09-10T09:07:31Z</time>
      </trkpt>
      <trkpt lat="44.77303" lon="-1.16038">
        <ele>-1.3</ele>
        <time>2023-09-10T09:07:35Z</time>
      </trkpt>
      <trkpt lat="44.77299" lon="-1.16054">
        <ele>-1.79</ele>
        <time>2023-09-10T09:07:44Z</time>
      </trkpt>
      <trkpt lat="44.77293" lon="-1.16072">
        <ele>-2.75</ele>
        <time>2023-09-10T09:07:55Z</time>
      </trkpt>
      <trkpt lat="44.77292" lon="-1.16084">
        <ele>-2.27</ele>
        <time>2023-09-10T09:08:02Z</time>
      </trkpt>
      <trkpt lat="44.77299" lon="-1.16099">
        <ele>-1.79</ele>
        <time>2023-09-10T09:08:11Z</time>
      </trkpt>
      <trkpt lat="44.77309" lon="-1.16108">
        <ele>-1.79</ele>
        <time>2023-09-10T09:08:21Z</time>
      </trkpt>
      <trkpt lat="44.77317" lon="-1.16121">
        <ele>-1.79</ele>
        <time>2023-09-10T09:08:30Z</time>
      </trkpt>
      <trkpt lat="44.77325" lon="-1.16131">
        <ele>-1.79</ele>
        <time>2023-09-10T09:08:38Z</time>
      </trkpt>
      <trkpt lat="44.77326" lon="-1.16132">
        <ele>-1.79</ele>
        <time>2023-09-10T09:08:39Z</time>
      </trkpt>
      <trkpt lat="44.77331" lon="-1.16143">
        <ele>-2.75</ele>
        <time>2023-09-10T09:08:47Z</time>
      </trkpt>
      <trkpt lat="44.77337" lon="-1.16156">
        <ele>-2.75</ele>
        <time>2023-09-10T09:08:54Z</time>
      </trkpt>
      <trkpt lat="44.77344" lon="-1.16166">
        <ele>-2.27</ele>
        <time>2023-09-10T09:09:02Z</time>
      </trkpt>
      <trkpt lat="44.77351" lon="-1.16178">
        <ele>-2.27</ele>
        <time>2023-09-10T09:09:11Z</time>
      </trkpt>
      <trkpt lat="44.77357" lon="-1.16189">
        <ele>-2.75</ele>
        <time>2023-09-10T09:09:19Z</time>
      </trkpt>
      <trkpt lat="44.77362" lon="-1.16199">
        <ele>-2.75</ele>
        <time>2023-09-10T09:09:26Z</time>
      </trkpt>
      <trkpt lat="44.77366" lon="-1.16215">
        <ele>-2.75</ele>
        <time>2023-09-10T09:09:35Z</time>
      </trkpt>
      <trkpt lat="44.77367" lon="-1.16234">
        <ele>-2.75</ele>
        <time>2023-09-10T09:09:45Z</time>
      </trkpt>
      <trkpt lat="44.77365" lon="-1.16244">
        <ele>-2.27</ele>
        <time>2023-09-10T09:09:51Z</time>
      </trkpt>
      <trkpt lat="44.77364" lon="-1.16249">
        <ele>-2.75</ele>
        <time>2023-09-10T09:09:54Z</time>
      </trkpt>
      <trkpt lat="44.77369" lon="-1.16267">
        <ele>-2.75</ele>
        <time>2023-09-10T09:10:04Z</time>
      </trkpt>
      <trkpt lat="44.7737" lon="-1.16268">
        <ele>-2.75</ele>
        <time>2023-09-10T09:10:05Z</time>
      </trkpt>
      <trkpt lat="44.77372" lon="-1.16272">
        <ele>-2.27</ele>
        <time>2023-09-10T09:10:08Z</time>
      </trkpt>
      <trkpt lat="44.77374" lon="-1.16283">
        <ele>-2.75</ele>
        <time>2023-09-10T09:10:14Z</time>
      </trkpt>
      <trkpt lat="44.77377" lon="-1.16297">
        <ele>-2.75</ele>
        <time>2023-09-10T09:10:22Z</time>
      </trkpt>
      <trkpt lat="44.77372" lon="-1.16314">
        <ele>-2.27</ele>
        <time>2023-09-10T09:10:32Z</time>
      </trkpt>
      <trkpt lat="44.77365" lon="-1.1633">
        <ele>-1.79</ele>
        <time>2023-09-10T09:10:42Z</time>
      </trkpt>
      <trkpt lat="44.77356" lon="-1.16342">
        <ele>-1.79</ele>
        <time>2023-09-10T09:10:52Z</time>
      </trkpt>
      <trkpt lat="44.77356" lon="-1.16344">
        <ele>-1.79</ele>
        <time>2023-09-10T09:10:54Z</time>
      </trkpt>
      <trkpt lat="44.77358" lon="-1.1635">
        <ele>-2.27</ele>
        <time>2023-09-10T09:10:58Z</time>
      </trkpt>
      <trkpt lat="44.77368" lon="-1.16358">
        <ele>-2.27</ele>
        <time>2023-09-10T09:11:09Z</time>
      </trkpt>
      <trkpt lat="44.77374" lon="-1.16366">
        <ele>-1.79</ele>
        <time>2023-09-10T09:11:17Z</time>
      </trkpt>
      <trkpt lat="44.77377" lon="-1.16369">
        <ele>-1.3</ele>
        <time>2023-09-10T09:11:20Z</time>
      </trkpt>
      <trkpt lat="44.77381" lon="-1.1638">
        <ele>-1.3</ele>
        <time>2023-09-10T09:11:27Z</time>
      </trkpt>
      <trkpt lat="44.77382" lon="-1.16392">
        <ele>-1.79</ele>
        <time>2023-09-10T09:11:33Z</time>
      </trkpt>
      <trkpt lat="44.77388" lon="-1.16406">
        <ele>-2.27</ele>
        <time>2023-09-10T09:11:42Z</time>
      </trkpt>
      <trkpt lat="44.77391" lon="-1.16416">
        <ele>-1.3</ele>
        <time>2023-09-10T09:11:50Z</time>
      </trkpt>
      <trkpt lat="44.77396" lon="-1.16433">
        <ele>-2.27</ele>
        <time>2023-09-10T09:11:59Z</time>
      </trkpt>
      <trkpt lat="44.77402" lon="-1.16444">
        <ele>-2.27</ele>
        <time>2023-09-10T09:12:09Z</time>
      </trkpt>
      <trkpt lat="44.77403" lon="-1.1645">
        <ele>-1.79</ele>
        <time>2023-09-10T09:12:18Z</time>
      </trkpt>
      <trkpt lat="44.77403" lon="-1.16453">
        <ele>-1.3</ele>
        <time>2023-09-10T09:12:25Z</time>
      </trkpt>
      <trkpt lat="44.77403" lon="-1.16453">
        <ele>-1.3</ele>
        <time>2023-09-10T09:12:32Z</time>
      </trkpt>
      <trkpt lat="44.77403" lon="-1.16452">
        <ele>-1.3</ele>
        <time>2023-09-10T09:12:43Z</time>
      </trkpt>
      <trkpt lat="44.77403" lon="-1.16452">
        <ele>-1.3</ele>
        <time>2023-09-10T09:12:54Z</time>
      </trkpt>
      <trkpt lat="44.77404" lon="-1.16451">
        <ele>-1.3</ele>
        <time>2023-09-10T09:13:09Z</time>
      </trkpt>
      <trkpt lat="44.77404" lon="-1.16451">
        <ele>-1.3</ele>
        <time>2023-09-10T09:13:24Z</time>
      </trkpt>
      <trkpt lat="44.77404" lon="-1.16451">
        <ele>-1.3</ele>
        <time>2023-09-10T09:13:38Z</time>
      </trkpt>
      <trkpt lat="44.77404" lon="-1.16451">
        <ele>-8.03</ele>
        <time>2023-09-10T09:13:47Z</time>
      </trkpt>
      <trkpt lat="44.77404" lon="-1.16451">
        <ele>0.62</ele>
        <time>2023-09-10T09:13:48Z</time>
      </trkpt>
      <trkpt lat="44.77404" lon="-1.1645">
        <ele>-6.59</ele>
        <time>2023-09-10T09:13:53Z</time>
      </trkpt>
      <trkpt lat="44.77404" lon="-1.1645">
        <ele>-0.34</ele>
        <time>2023-09-10T09:13:54Z</time>
      </trkpt>
      <trkpt lat="44.77404" lon="-1.1645">
        <ele>-5.63</ele>
        <time>2023-09-10T09:13:55Z</time>
      </trkpt>
      <trkpt lat="44.77404" lon="-1.1645">
        <ele>-0.34</ele>
        <time>2023-09-10T09:13:56Z</time>
      </trkpt>
      <trkpt lat="44.77404" lon="-1.1645">
        <ele>-4.19</ele>
        <time>2023-09-10T09:13:57Z</time>
      </trkpt>
      <trkpt lat="44.77404" lon="-1.1645">
        <ele>0.14</ele>
        <time>2023-09-10T09:13:58Z</time>
      </trkpt>
      <trkpt lat="44.77404" lon="-1.1645">
        <ele>-6.11</ele>
        <time>2023-09-10T09:14:08Z</time>
      </trkpt>
      <trkpt lat="44.77404" lon="-1.1645">
        <ele>-0.82</ele>
        <time>2023-09-10T09:14:09Z</time>
      </trkpt>
      <trkpt lat="44.77404" lon="-1.1645">
        <ele>-1.79</ele>
        <time>2023-09-10T09:14:20Z</time>
      </trkpt>
      <trkpt lat="44.77404" lon="-1.1645">
        <ele>-1.3</ele>
        <time>2023-09-10T09:14:34Z</time>
      </trkpt>
      <trkpt lat="44.77405" lon="-1.16449">
        <ele>-1.3</ele>
        <time>2023-09-10T09:14:42Z</time>
      </trkpt>
      <trkpt lat="44.77406" lon="-1.1645">
        <ele>-1.79</ele>
        <time>2023-09-10T09:14:50Z</time>
      </trkpt>
      <trkpt lat="44.77408" lon="-1.1645">
        <ele>-1.79</ele>
        <time>2023-09-10T09:14:52Z</time>
      </trkpt>
      <trkpt lat="44.77412" lon="-1.16451">
        <ele>-1.3</ele>
        <time>2023-09-10T09:14:55Z</time>
      </trkpt>
      <trkpt lat="44.77422" lon="-1.16457">
        <ele>-1.3</ele>
        <time>2023-09-10T09:15:04Z</time>
      </trkpt>
      <trkpt lat="44.7743" lon="-1.16461">
        <ele>-1.3</ele>
        <time>2023-09-10T09:15:11Z</time>
      </trkpt>
      <trkpt lat="44.77441" lon="-1.16464">
        <ele>-1.3</ele>
        <time>2023-09-10T09:15:19Z</time>
      </trkpt>
      <trkpt lat="44.77452" lon="-1.16467">
        <ele>-1.79</ele>
        <time>2023-09-10T09:15:27Z</time>
      </trkpt>
      <trkpt lat="44.77459" lon="-1.16469">
        <ele>-1.3</ele>
        <time>2023-09-10T09:15:32Z</time>
      </trkpt>
      <trkpt lat="44.77467" lon="-1.16474">
        <ele>-1.79</ele>
        <time>2023-09-10T09:15:40Z</time>
      </trkpt>
      <trkpt lat="44.77478" lon="-1.16478">
        <ele>-0.82</ele>
        <time>2023-09-10T09:15:49Z</time>
      </trkpt>
      <trkpt lat="44.77486" lon="-1.16483">
        <ele>-1.79</ele>
        <time>2023-09-10T09:15:57Z</time>
      </trkpt>
      <trkpt lat="44.77494" lon="-1.16491">
        <ele>-1.79</ele>
        <time>2023-09-10T09:16:06Z</time>
      </trkpt>
      <trkpt lat="44.77497" lon="-1.16492">
        <ele>-1.79</ele>
        <time>2023-09-10T09:16:08Z</time>
      </trkpt>
      <trkpt lat="44.77505" lon="-1.16502">
        <ele>-1.3</ele>
        <time>2023-09-10T09:16:16Z</time>
      </trkpt>
      <trkpt lat="44.77506" lon="-1.16503">
        <ele>-1.79</ele>
        <time>2023-09-10T09:16:17Z</time>
      </trkpt>
      <trkpt lat="44.77514" lon="-1.16516">
        <ele>-1.79</ele>
        <time>2023-09-10T09:16:29Z</time>
      </trkpt>
      <trkpt lat="44.77521" lon="-1.16526">
        <ele>-0.82</ele>
        <time>2023-09-10T09:16:37Z</time>
      </trkpt>
      <trkpt lat="44.77528" lon="-1.16536">
        <ele>-1.79</ele>
        <time>2023-09-10T09:16:44Z</time>
      </trkpt>
      <trkpt lat="44.77531" lon="-1.16537">
        <ele>-0.82</ele>
        <time>2023-09-10T09:16:47Z</time>
      </trkpt>
      <trkpt lat="44.77541" lon="-1.16541">
        <ele>-1.3</ele>
        <time>2023-09-10T09:16:55Z</time>
      </trkpt>
      <trkpt lat="44.77543" lon="-1.16543">
        <ele>-0.82</ele>
        <time>2023-09-10T09:16:56Z</time>
      </trkpt>
      <trkpt lat="44.7755" lon="-1.16544">
        <ele>-1.3</ele>
        <time>2023-09-10T09:17:00Z</time>
      </trkpt>
      <trkpt lat="44.77556" lon="-1.16547">
        <ele>-1.3</ele>
        <time>2023-09-10T09:17:05Z</time>
      </trkpt>
      <trkpt lat="44.7756" lon="-1.16547">
        <ele>-1.3</ele>
        <time>2023-09-10T09:17:11Z</time>
      </trkpt>
      <trkpt lat="44.77567" lon="-1.16552">
        <ele>-1.3</ele>
        <time>2023-09-10T09:17:14Z</time>
      </trkpt>
      <trkpt lat="44.7757" lon="-1.16554">
        <ele>-1.3</ele>
        <time>2023-09-10T09:17:19Z</time>
      </trkpt>
      <trkpt lat="44.77572" lon="-1.16555">
        <ele>-0.82</ele>
        <time>2023-09-10T09:17:22Z</time>
      </trkpt>
      <trkpt lat="44.77575" lon="-1.16561">
        <ele>-1.3</ele>
        <time>2023-09-10T09:17:24Z</time>
      </trkpt>
      <trkpt lat="44.77579" lon="-1.16566">
        <ele>-1.3</ele>
        <time>2023-09-10T09:17:29Z</time>
      </trkpt>
      <trkpt lat="44.77579" lon="-1.16568">
        <ele>-0.82</ele>
        <time>2023-09-10T09:17:32Z</time>
      </trkpt>
      <trkpt lat="44.77585" lon="-1.1658">
        <ele>-1.3</ele>
        <time>2023-09-10T09:17:37Z</time>
      </trkpt>
      <trkpt lat="44.77587" lon="-1.16581">
        <ele>-1.3</ele>
        <time>2023-09-10T09:17:39Z</time>
      </trkpt>
      <trkpt lat="44.77593" lon="-1.16582">
        <ele>-0.82</ele>
        <time>2023-09-10T09:17:44Z</time>
      </trkpt>
      <trkpt lat="44.77601" lon="-1.16588">
        <ele>-1.3</ele>
        <time>2023-09-10T09:17:50Z</time>
      </trkpt>
      <trkpt lat="44.77606" lon="-1.16589">
        <ele>-0.82</ele>
        <time>2023-09-10T09:17:56Z</time>
      </trkpt>
      <trkpt lat="44.77616" lon="-1.16593">
        <ele>-0.82</ele>
        <time>2023-09-10T09:18:01Z</time>
      </trkpt>
      <trkpt lat="44.77621" lon="-1.16596">
        <ele>-0.82</ele>
        <time>2023-09-10T09:18:08Z</time>
      </trkpt>
      <trkpt lat="44.77633" lon="-1.16604">
        <ele>-0.34</ele>
        <time>2023-09-10T09:18:19Z</time>
      </trkpt>
      <trkpt lat="44.7765" lon="-1.16614">
        <ele>-1.3</ele>
        <time>2023-09-10T09:18:30Z</time>
      </trkpt>
      <trkpt lat="44.7767" lon="-1.16621">
        <ele>-0.82</ele>
        <time>2023-09-10T09:18:43Z</time>
      </trkpt>
      <trkpt lat="44.77689" lon="-1.16632">
        <ele>-0.82</ele>
        <time>2023-09-10T09:18:55Z</time>
      </trkpt>
      <trkpt lat="44.77703" lon="-1.16635">
        <ele>-0.34</ele>
        <time>2023-09-10T09:19:05Z</time>
      </trkpt>
      <trkpt lat="44.77715" lon="-1.16639">
        <ele>1.1</ele>
        <time>2023-09-10T09:19:14Z</time>
      </trkpt>
      <trkpt lat="44.77705" lon="-1.16649">
        <ele>0.62</ele>
        <time>2023-09-10T09:19:22Z</time>
      </trkpt>
      <trkpt lat="44.77702" lon="-1.16654">
        <ele>0.62</ele>
        <time>2023-09-10T09:19:24Z</time>
      </trkpt>
      <trkpt lat="44.77704" lon="-1.16666">
        <ele>0.62</ele>
        <time>2023-09-10T09:19:34Z</time>
      </trkpt>
      <trkpt lat="44.77705" lon="-1.16677">
        <ele>0.62</ele>
        <time>2023-09-10T09:19:45Z</time>
      </trkpt>
      <trkpt lat="44.77704" lon="-1.1668">
        <ele>-0.34</ele>
        <time>2023-09-10T09:19:54Z</time>
      </trkpt>
      <trkpt lat="44.77699" lon="-1.16696">
        <ele>0.14</ele>
        <time>2023-09-10T09:20:05Z</time>
      </trkpt>
      <trkpt lat="44.77683" lon="-1.16716">
        <ele>-0.82</ele>
        <time>2023-09-10T09:20:17Z</time>
      </trkpt>
      <trkpt lat="44.7767" lon="-1.16729">
        <ele>0.14</ele>
        <time>2023-09-10T09:20:28Z</time>
      </trkpt>
      <trkpt lat="44.77654" lon="-1.16736">
        <ele>-0.34</ele>
        <time>2023-09-10T09:20:39Z</time>
      </trkpt>
      <trkpt lat="44.7764" lon="-1.16738">
        <ele>1.1</ele>
        <time>2023-09-10T09:20:49Z</time>
      </trkpt>
      <trkpt lat="44.7763" lon="-1.16737">
        <ele>0.62</ele>
        <time>2023-09-10T09:20:58Z</time>
      </trkpt>
      <trkpt lat="44.77629" lon="-1.1674">
        <ele>-1.3</ele>
        <time>2023-09-10T09:21:01Z</time>
      </trkpt>
      <trkpt lat="44.77628" lon="-1.16743">
        <ele>0.62</ele>
        <time>2023-09-10T09:21:03Z</time>
      </trkpt>
      <trkpt lat="44.77619" lon="-1.16752">
        <ele>-0.82</ele>
        <time>2023-09-10T09:21:13Z</time>
      </trkpt>
      <trkpt lat="44.77616" lon="-1.16754">
        <ele>0.62</ele>
        <time>2023-09-10T09:21:15Z</time>
      </trkpt>
      <trkpt lat="44.77607" lon="-1.16762">
        <ele>-0.34</ele>
        <time>2023-09-10T09:21:24Z</time>
      </trkpt>
      <trkpt lat="44.77602" lon="-1.16774">
        <ele>-0.34</ele>
        <time>2023-09-10T09:21:33Z</time>
      </trkpt>
      <trkpt lat="44.77592" lon="-1.16787">
        <ele>0.14</ele>
        <time>2023-09-10T09:21:44Z</time>
      </trkpt>
      <trkpt lat="44.77585" lon="-1.16797">
        <ele>0.14</ele>
        <time>2023-09-10T09:21:56Z</time>
      </trkpt>
      <trkpt lat="44.7758" lon="-1.16805">
        <ele>0.62</ele>
        <time>2023-09-10T09:22:07Z</time>
      </trkpt>
      <trkpt lat="44.77576" lon="-1.16818">
        <ele>1.1</ele>
        <time>2023-09-10T09:22:15Z</time>
      </trkpt>
      <trkpt lat="44.77568" lon="-1.16845">
        <ele>0.62</ele>
        <time>2023-09-10T09:22:26Z</time>
      </trkpt>
      <trkpt lat="44.77559" lon="-1.16866">
        <ele>0.14</ele>
        <time>2023-09-10T09:22:35Z</time>
      </trkpt>
      <trkpt lat="44.77559" lon="-1.16868">
        <ele>-0.34</ele>
        <time>2023-09-10T09:22:49Z</time>
      </trkpt>
      <trkpt lat="44.77558" lon="-1.16865">
        <ele>-0.34</ele>
        <time>2023-09-10T09:23:02Z</time>
      </trkpt>
      <trkpt lat="44.77555" lon="-1.16864">
        <ele>-0.82</ele>
        <time>2023-09-10T09:23:09Z</time>
      </trkpt>
      <trkpt lat="44.77546" lon="-1.16855">
        <ele>-0.82</ele>
        <time>2023-09-10T09:23:21Z</time>
      </trkpt>
      <trkpt lat="44.77544" lon="-1.16853">
        <ele>-0.82</ele>
        <time>2023-09-10T09:23:33Z</time>
      </trkpt>
      <trkpt lat="44.77544" lon="-1.16852">
        <ele>-1.79</ele>
        <time>2023-09-10T09:23:39Z</time>
      </trkpt>
      <trkpt lat="44.77544" lon="-1.16852">
        <ele>1.58</ele>
        <time>2023-09-10T09:23:41Z</time>
      </trkpt>
      <trkpt lat="44.77545" lon="-1.16852">
        <ele>1.58</ele>
        <time>2023-09-10T09:23:42Z</time>
      </trkpt>
      <trkpt lat="44.77545" lon="-1.16852">
        <ele>-1.79</ele>
        <time>2023-09-10T09:23:43Z</time>
      </trkpt>
      <trkpt lat="44.77545" lon="-1.16852">
        <ele>0.14</ele>
        <time>2023-09-10T09:23:44Z</time>
      </trkpt>
      <trkpt lat="44.77546" lon="-1.16852">
        <ele>-3.71</ele>
        <time>2023-09-10T09:23:54Z</time>
      </trkpt>
      <trkpt lat="44.77546" lon="-1.16852">
        <ele>-3.71</ele>
        <time>2023-09-10T09:23:55Z</time>
      </trkpt>
      <trkpt lat="44.77546" lon="-1.16853">
        <ele>2.06</ele>
        <time>2023-09-10T09:23:56Z</time>
      </trkpt>
      <trkpt lat="44.77545" lon="-1.16853">
        <ele>0.14</ele>
        <time>2023-09-10T09:23:57Z</time>
      </trkpt>
      <trkpt lat="44.77546" lon="-1.16853">
        <ele>-3.23</ele>
        <time>2023-09-10T09:23:59Z</time>
      </trkpt>
      <trkpt lat="44.77546" lon="-1.16853">
        <ele>-3.23</ele>
        <time>2023-09-10T09:24:00Z</time>
      </trkpt>
      <trkpt lat="44.77546" lon="-1.16853">
        <ele>1.1</ele>
        <time>2023-09-10T09:24:01Z</time>
      </trkpt>
      <trkpt lat="44.77545" lon="-1.16854">
        <ele>-2.27</ele>
        <time>2023-09-10T09:24:08Z</time>
      </trkpt>
      <trkpt lat="44.77545" lon="-1.16854">
        <ele>-1.79</ele>
        <time>2023-09-10T09:24:09Z</time>
      </trkpt>
      <trkpt lat="44.77545" lon="-1.16855">
        <ele>-0.34</ele>
        <time>2023-09-10T09:24:11Z</time>
      </trkpt>
    </trkseg>
  </trk>
</gpx>